Darstellungsparameter: Aktuell verwendete Einstellungen:
Skalierung der Graphiken ... ?
xyx+y,   Skalierungsfaktor:      Skalierung: Modus: x, Faktor: 1
Darstellungszeitraum ... ?
Vom - - bis: - -   Zeitraum: 16.08.2010 - 29.08.2010
Min/Max/Avg-Anzeige ... ?
Zeige MMA aktuell
Zeige MMA Monat
Zeige MMA alles
Zeige --A aktuell
Zeige --A Monat
Zeige --A alles
Keine MMA-Anzeige
MMA:
Average (ber die Originaldaten)
MMA-Basis: 16.08.2010 - 29.08.2010
Quicknavigation für Darstellung... ?
Tage:      1T, 2T, 3T, 5T -1T -2T -3T -5T +1T +2T +3T +5T
Wochen: 1W, 2W, 3W -1W -2W -3W +1W +2W +3W
Monate: 1M, 3M, 6M -1M -3M -6M +1M +3M +6M
Jahre:    1J, 3J, 5J, 10J -1J -3J -5J -10J +1J +3J +5J +10J
Nutze für die Darstellung ... ?
Originaldaten oder Mittelwerte auf ...
Stundenbasis Tagesbasis Wochenbasis
Monatsbasis Jahresbasis      Datenbasis: Original-Daten
Darstellen als:
Statistik (Auto) Statistik J:M      Darstellung:
Zur Graphik,    zurück zur Übersicht aller Sensoren.
 
Tabellarische Datenbersicht: ?
 
Sensor: Nr:Datum:Temp:Abs-Feuchte:Windchill:Wind:
Aussen-T/F 1 16-08-2010 00:09:02 15 C 12.18 g/m*3 15 C 0 km/h
2 16-08-2010 00:21:01 15 C 12.18 g/m*3 15 C 0 km/h
3 16-08-2010 00:33:02 14.9 C 12.11 g/m*3 14.9 C 0 km/h
4 16-08-2010 00:45:02 14.8 C 12.03 g/m*3 14.8 C 0 km/h
5 16-08-2010 00:57:02 14.8 C 12.03 g/m*3 14.8 C 0 km/h
6 16-08-2010 01:09:02 14.8 C 12.03 g/m*3 14.8 C 0 km/h
7 16-08-2010 01:21:02 14.7 C 11.96 g/m*3 14.7 C 0 km/h
8 16-08-2010 01:33:02 14.7 C 11.83 g/m*3 14.7 C 0 km/h
9 16-08-2010 01:45:02 14.7 C 11.83 g/m*3 14.7 C 0 km/h
10 16-08-2010 01:57:02 14.7 C 11.71 g/m*3 14.7 C 0 km/h
11 16-08-2010 02:09:02 14.6 C 11.64 g/m*3 14.6 C 0 km/h
12 16-08-2010 02:21:02 14.6 C 11.64 g/m*3 14.6 C 0 km/h
13 16-08-2010 02:33:02 14.6 C 11.64 g/m*3 14.6 C 0 km/h
14 16-08-2010 02:46:03 14.6 C 11.51 g/m*3 14.6 C 0 km/h
15 16-08-2010 02:58:03 14.6 C 11.64 g/m*3 14.6 C 0 km/h
16 16-08-2010 03:10:04 14.6 C 11.64 g/m*3 14.6 C 0 km/h
17 16-08-2010 03:22:04 14.6 C 11.64 g/m*3 14.6 C 0 km/h
18 16-08-2010 03:34:02 14.6 C 11.64 g/m*3 14.6 C 0 km/h
19 16-08-2010 03:46:02 14.6 C 11.64 g/m*3 14.6 C 0 km/h
20 16-08-2010 03:58:02 14.6 C 11.64 g/m*3 14.6 C 0 km/h
21 16-08-2010 04:10:02 14.5 C 11.44 g/m*3 14.5 C 0 km/h
22 16-08-2010 04:22:02 14.5 C 11.32 g/m*3 14.5 C 0 km/h
23 16-08-2010 04:34:02 14.5 C 11.32 g/m*3 14.5 C 0 km/h
24 16-08-2010 04:46:02 14.5 C 11.32 g/m*3 14.5 C 0 km/h
25 16-08-2010 04:58:02 14.5 C 11.32 g/m*3 14.5 C 0 km/h
Sensor: Nr:Datum:Temp:Abs-Feuchte:Windchill:Wind:
Aussen-T/F 26 16-08-2010 05:10:02 14.5 C 11.32 g/m*3 14.5 C 0 km/h
27 16-08-2010 05:22:02 14.5 C 11.32 g/m*3 14.5 C 0 km/h
28 16-08-2010 05:34:02 14.5 C 11.44 g/m*3 14.5 C 0 km/h
29 16-08-2010 05:46:01 14.5 C 11.44 g/m*3 14.5 C 0 km/h
30 16-08-2010 05:58:01 14.5 C 11.44 g/m*3 14.5 C 0 km/h
31 16-08-2010 06:10:02 14.5 C 11.44 g/m*3 14.5 C 0 km/h
32 16-08-2010 06:22:02 14.5 C 11.32 g/m*3 14.5 C 0 km/h
33 16-08-2010 06:34:02 14.5 C 11.32 g/m*3 14.5 C 0 km/h
34 16-08-2010 06:46:02 14.6 C 11.39 g/m*3 14.6 C 0 km/h
35 16-08-2010 06:58:02 14.6 C 11.39 g/m*3 14.6 C 0 km/h
36 16-08-2010 07:10:02 14.6 C 11.39 g/m*3 14.6 C 0 km/h
37 16-08-2010 07:22:56 14.8 C 11.53 g/m*3 14.8 C 0 km/h
38 16-08-2010 07:34:02 14.8 C 11.53 g/m*3 14.8 C 0 km/h
39 16-08-2010 07:46:02 14.8 C 11.4 g/m*3 14.8 C 0 km/h
40 16-08-2010 07:58:02 15.2 C 11.42 g/m*3 15.2 C 0 km/h
41 16-08-2010 08:10:02 15.6 C 11.57 g/m*3 15.6 C 0 km/h
42 16-08-2010 08:22:01 15.8 C 11.58 g/m*3 15.8 C 0 km/h
43 16-08-2010 08:34:02 15.9 C 11.38 g/m*3 15.9 C 0 km/h
44 16-08-2010 08:46:01 16 C 11.31 g/m*3 16 C 0 km/h
45 16-08-2010 08:58:01 16.3 C 11.38 g/m*3 16.3 C 0 km/h
46 16-08-2010 09:10:02 17.1 C 11.5 g/m*3 17.1 C 0 km/h
47 16-08-2010 09:22:02 17.4 C 11.12 g/m*3 17.4 C 0 km/h
48 16-08-2010 09:34:01 17.4 C 10.82 g/m*3 17.4 C 0 km/h
49 16-08-2010 09:46:01 17.7 C 11.01 g/m*3 17.7 C 0 km/h
50 16-08-2010 09:58:01 17.4 C 10.97 g/m*3 17.4 C 0 km/h
Sensor: Nr:Datum:Temp:Abs-Feuchte:Windchill:Wind:
Aussen-T/F 51 16-08-2010 10:10:01 17.4 C 10.97 g/m*3 17.4 C 0 km/h
52 16-08-2010 10:22:02 17.3 C 10.9 g/m*3 17.3 C 0 km/h
53 16-08-2010 10:34:01 17.1 C 10.63 g/m*3 17.1 C 0 km/h
54 16-08-2010 10:46:02 17.2 C 10.84 g/m*3 17.2 C 0 km/h
55 16-08-2010 10:58:02 17 C 10.85 g/m*3 17 C 0 km/h
56 16-08-2010 11:10:01 17.3 C 11.05 g/m*3 17.3 C 0 km/h
57 16-08-2010 11:22:01 17.7 C 11.47 g/m*3 17.7 C 0 km/h
58 16-08-2010 11:42:02 18.1 C 10.97 g/m*3 18.1 C 0 km/h
59 16-08-2010 11:54:02 17.7 C 10.86 g/m*3 17.7 C 0 km/h
60 16-08-2010 12:06:03 17.5 C 11.33 g/m*3 17.5 C 0 km/h
61 16-08-2010 12:18:02 17.8 C 11.84 g/m*3 17.8 C 0 km/h
62 16-08-2010 12:30:02 17.6 C 11.4 g/m*3 17.6 C 0 km/h
63 16-08-2010 12:42:02 17.8 C 11.54 g/m*3 17.8 C 0 km/h
64 16-08-2010 12:54:02 18.1 C 11.12 g/m*3 18.1 C 0 km/h
65 16-08-2010 13:06:02 18.1 C 10.97 g/m*3 18.1 C 0 km/h
66 16-08-2010 13:18:02 18.2 C 10.72 g/m*3 18.2 C 0 km/h
67 16-08-2010 13:30:02 18.3 C 10.63 g/m*3 18.3 C 0 km/h
68 16-08-2010 13:42:02 18.5 C 10.28 g/m*3 18.5 C 0 km/h
69 16-08-2010 13:54:02 18.8 C 10.31 g/m*3 18.8 C 0 km/h
70 16-08-2010 14:06:01 19.5 C 10.41 g/m*3 19.5 C 0 km/h
71 16-08-2010 14:18:02 19.6 C 9.96 g/m*3 19.6 C 0 km/h
72 16-08-2010 14:30:03 20 C 9.51 g/m*3 20 C 0 km/h
73 16-08-2010 14:42:01 20.5 C 9.96 g/m*3 20.5 C 0 km/h
74 16-08-2010 14:54:02 19.8 C 9.57 g/m*3 19.8 C 0 km/h
75 16-08-2010 15:06:02 19.7 C 9.34 g/m*3 19.7 C 0 km/h
Sensor: Nr:Datum:Temp:Abs-Feuchte:Windchill:Wind:
Aussen-T/F 76 16-08-2010 15:18:02 19.7 C 9.51 g/m*3 19.7 C 0 km/h
77 16-08-2010 15:30:02 19.7 C 9.34 g/m*3 19.7 C 0 km/h
78 16-08-2010 15:42:03 19.8 C 9.57 g/m*3 19.8 C 0 km/h
79 16-08-2010 15:54:02 19.7 C 9.34 g/m*3 19.7 C 0 km/h
80 16-08-2010 16:06:02 20 C 9.68 g/m*3 20 C 0 km/h
81 16-08-2010 16:18:02 19.7 C 9.68 g/m*3 19.7 C 0 km/h
82 16-08-2010 16:30:02 19.6 C 9.79 g/m*3 19.6 C 0 km/h
83 16-08-2010 16:42:02 19.5 C 9.73 g/m*3 19.5 C 0 km/h
84 16-08-2010 16:54:02 20 C 9.85 g/m*3 20 C 0 km/h
85 16-08-2010 17:07:03 20 C 9.85 g/m*3 20 C 0 km/h
86 16-08-2010 17:19:02 19.9 C 9.79 g/m*3 19.9 C 0 km/h
87 16-08-2010 17:31:02 19.8 C 9.74 g/m*3 19.8 C 0 km/h
88 16-08-2010 17:43:02 19.8 C 9.74 g/m*3 19.8 C 0 km/h
89 16-08-2010 17:55:01 20.3 C 9.85 g/m*3 20.3 C 0 km/h
90 16-08-2010 18:07:02 20.2 C 9.44 g/m*3 20.2 C 0 km/h
91 16-08-2010 18:19:01 20 C 9.51 g/m*3 20 C 0 km/h
92 16-08-2010 18:31:01 19.8 C 9.74 g/m*3 19.8 C 0 km/h
93 16-08-2010 18:43:01 19.5 C 9.73 g/m*3 19.5 C 0 km/h
94 16-08-2010 18:55:01 19.3 C 9.79 g/m*3 19.3 C 0 km/h
95 16-08-2010 19:07:02 18.9 C 9.88 g/m*3 18.9 C 0 km/h
96 16-08-2010 19:19:02 18.8 C 9.99 g/m*3 18.8 C 0 km/h
97 16-08-2010 19:31:01 18.7 C 10.09 g/m*3 18.7 C 0 km/h
98 16-08-2010 19:43:01 18.4 C 10.07 g/m*3 18.4 C 0 km/h
99 16-08-2010 19:55:02 18.2 C 10.26 g/m*3 18.2 C 0 km/h
100 16-08-2010 20:07:01 18.1 C 10.35 g/m*3 18.1 C 0 km/h
Sensor: Nr:Datum:Temp:Abs-Feuchte:Windchill:Wind:
Aussen-T/F 101 16-08-2010 20:19:02 18 C 10.44 g/m*3 18 C 0 km/h
102 16-08-2010 20:31:01 17.9 C 10.69 g/m*3 17.9 C 0 km/h
103 16-08-2010 20:43:01 17.8 C 10.78 g/m*3 17.8 C 0 km/h
104 16-08-2010 20:55:02 17.7 C 10.86 g/m*3 17.7 C 0 km/h
105 16-08-2010 21:07:01 17.6 C 11.1 g/m*3 17.6 C 0 km/h
106 16-08-2010 21:19:01 17.4 C 11.12 g/m*3 17.4 C 0 km/h
107 16-08-2010 21:31:02 17.3 C 11.34 g/m*3 17.3 C 0 km/h
108 16-08-2010 21:43:02 17.4 C 11.41 g/m*3 17.4 C 0 km/h
109 16-08-2010 21:55:02 17.5 C 11.63 g/m*3 17.5 C 0 km/h
110 16-08-2010 22:07:35 17.4 C 11.71 g/m*3 17.4 C 0 km/h
111 16-08-2010 22:20:03 17.5 C 11.78 g/m*3 17.5 C 0 km/h
112 16-08-2010 22:32:03 17.6 C 11.85 g/m*3 17.6 C 0 km/h
113 16-08-2010 22:44:03 17.7 C 11.92 g/m*3 17.7 C 0 km/h
114 16-08-2010 22:56:03 17.7 C 11.92 g/m*3 17.7 C 0 km/h
115 16-08-2010 23:08:03 17.8 C 12.14 g/m*3 17.8 C 0 km/h
116 16-08-2010 23:20:03 17.7 C 12.07 g/m*3 17.7 C 0 km/h
117 16-08-2010 23:32:03 17.7 C 12.07 g/m*3 17.7 C 0 km/h
118 16-08-2010 23:44:03 17.8 C 11.99 g/m*3 17.8 C 0 km/h
119 16-08-2010 23:56:03 17.8 C 11.99 g/m*3 17.8 C 0 km/h
120 17-08-2010 00:08:03 17.8 C 11.99 g/m*3 17.8 C 0 km/h
121 17-08-2010 00:20:03 17.8 C 11.99 g/m*3 17.8 C 0 km/h
122 17-08-2010 00:32:03 17.7 C 11.92 g/m*3 17.7 C 0 km/h
123 17-08-2010 00:44:03 17.5 C 11.78 g/m*3 17.5 C 0 km/h
124 17-08-2010 00:56:03 17.3 C 12.08 g/m*3 17.3 C 0 km/h
125 17-08-2010 01:08:03 17.1 C 12.08 g/m*3 17.1 C 0 km/h
Sensor: Nr:Datum:Temp:Abs-Feuchte:Windchill:Wind:
Aussen-T/F 126 17-08-2010 01:20:03 16.8 C 12.3 g/m*3 16.8 C 0 km/h
127 17-08-2010 01:32:03 16.6 C 12.29 g/m*3 16.6 C 0 km/h
128 17-08-2010 01:44:03 16.5 C 12.36 g/m*3 16.5 C 0 km/h
129 17-08-2010 01:56:03 16.4 C 12.42 g/m*3 16.4 C 0 km/h
130 17-08-2010 02:08:03 16.3 C 12.35 g/m*3 16.3 C 0 km/h
131 17-08-2010 02:20:03 16.5 C 12.5 g/m*3 16.5 C 0 km/h
132 17-08-2010 02:32:04 16.5 C 12.5 g/m*3 16.5 C 0 km/h
133 17-08-2010 02:44:04 16.6 C 12.43 g/m*3 16.6 C 0 km/h
134 17-08-2010 02:56:04 16.5 C 12.08 g/m*3 16.5 C 0 km/h
135 17-08-2010 03:08:04 16.4 C 11.86 g/m*3 16.4 C 0 km/h
136 17-08-2010 03:20:04 16.4 C 11.86 g/m*3 16.4 C 0 km/h
137 17-08-2010 03:32:04 16.4 C 11.86 g/m*3 16.4 C 0 km/h
138 17-08-2010 03:44:04 16.4 C 11.72 g/m*3 16.4 C 0 km/h
139 17-08-2010 03:56:04 16.5 C 11.65 g/m*3 16.5 C 0 km/h
140 17-08-2010 04:08:04 16.5 C 11.37 g/m*3 16.5 C 0 km/h
141 17-08-2010 04:20:04 16.4 C 11.31 g/m*3 16.4 C 0 km/h
142 17-08-2010 04:32:04 16.4 C 11.17 g/m*3 16.4 C 0 km/h
143 17-08-2010 04:44:04 16.4 C 11.03 g/m*3 16.4 C 0 km/h
144 17-08-2010 04:56:04 16.4 C 11.03 g/m*3 16.4 C 0 km/h
145 17-08-2010 05:08:04 16 C 11.04 g/m*3 16 C 0 km/h
146 17-08-2010 05:20:04 15.5 C 11.24 g/m*3 15.5 C 0 km/h
147 17-08-2010 05:32:05 15.4 C 11.43 g/m*3 15.4 C 0 km/h
148 17-08-2010 05:44:05 15.6 C 11.57 g/m*3 15.6 C 0 km/h
149 17-08-2010 05:56:05 15.6 C 11.44 g/m*3 15.6 C 0 km/h
150 17-08-2010 06:08:05 15.7 C 11.37 g/m*3 15.7 C 0 km/h
Sensor: Nr:Datum:Temp:Abs-Feuchte:Windchill:Wind:
Aussen-T/F 151 17-08-2010 06:20:05 15.8 C 11.31 g/m*3 15.8 C 0 km/h
152 17-08-2010 06:32:05 15.8 C 11.31 g/m*3 15.8 C 0 km/h
153 17-08-2010 06:44:05 15.9 C 11.24 g/m*3 15.9 C 0 km/h
154 17-08-2010 06:56:02 16 C 10.9 g/m*3 16 C 0 km/h
155 17-08-2010 07:08:02 16.2 C 10.89 g/m*3 16.2 C 0 km/h
156 17-08-2010 07:20:24 16.2 C 10.76 g/m*3 16.2 C 0 km/h
157 17-08-2010 07:32:02 16.3 C 10.96 g/m*3 16.3 C 0 km/h
158 17-08-2010 07:44:02 16.4 C 10.89 g/m*3 16.4 C 0 km/h
159 17-08-2010 07:56:01 16.7 C 10.66 g/m*3 16.7 C 0 km/h
160 17-08-2010 08:08:03 16.7 C 10.66 g/m*3 16.7 C 0 km/h
161 17-08-2010 08:20:01 16.8 C 10.58 g/m*3 16.8 C 0 km/h
162 17-08-2010 08:32:02 16.7 C 10.23 g/m*3 16.7 C 0 km/h
163 17-08-2010 08:44:02 16.7 C 10.09 g/m*3 16.7 C 0 km/h
164 17-08-2010 08:56:02 16.7 C 10.09 g/m*3 16.7 C 0 km/h
165 17-08-2010 09:08:02 16.8 C 10.01 g/m*3 16.8 C 0 km/h
166 17-08-2010 09:20:02 16.9 C 9.78 g/m*3 16.9 C 0 km/h
167 17-08-2010 09:32:02 16.9 C 9.64 g/m*3 16.9 C 0 km/h
168 17-08-2010 09:44:02 17.1 C 9.46 g/m*3 17.1 C 0 km/h
169 17-08-2010 09:56:02 17.2 C 9.37 g/m*3 17.2 C 0 km/h
170 17-08-2010 10:08:02 17 C 9.26 g/m*3 17 C 0 km/h
171 17-08-2010 10:20:01 17 C 9.26 g/m*3 17 C 0 km/h
172 17-08-2010 10:32:02 17 C 9.41 g/m*3 17 C 0 km/h
173 17-08-2010 10:44:02 17 C 9.41 g/m*3 17 C 0 km/h
174 17-08-2010 10:56:02 17.3 C 9.43 g/m*3 17.3 C 0 km/h
175 17-08-2010 11:08:02 17.6 C 9.45 g/m*3 17.6 C 0 km/h
Sensor: Nr:Datum:Temp:Abs-Feuchte:Windchill:Wind:
Aussen-T/F 176 17-08-2010 11:20:02 17.3 C 9.58 g/m*3 17.3 C 0 km/h
177 17-08-2010 11:32:02 17.6 C 9.3 g/m*3 17.6 C 0 km/h
178 17-08-2010 11:44:02 17.7 C 8.75 g/m*3 17.7 C 0 km/h
179 17-08-2010 11:56:02 17.7 C 8.9 g/m*3 17.7 C 0 km/h
180 17-08-2010 12:08:02 17.6 C 8.85 g/m*3 17.6 C 0 km/h
181 17-08-2010 12:20:02 16.8 C 9.58 g/m*3 16.8 C 0 km/h
182 17-08-2010 12:32:02 16 C 10.08 g/m*3 16 C 0 km/h
183 17-08-2010 12:44:02 16.4 C 11.03 g/m*3 16.4 C 0 km/h
184 17-08-2010 12:56:02 16.3 C 10.96 g/m*3 16.3 C 0 km/h
185 17-08-2010 13:08:02 16.5 C 11.23 g/m*3 16.5 C 0 km/h
186 17-08-2010 13:20:02 16.8 C 11.58 g/m*3 16.8 C 0 km/h
187 17-08-2010 13:32:02 17.7 C 11.92 g/m*3 17.7 C 0 km/h
188 17-08-2010 13:44:02 17.9 C 11.76 g/m*3 17.9 C 0 km/h
189 17-08-2010 13:56:02 17.6 C 12.15 g/m*3 17.6 C 0 km/h
190 17-08-2010 14:08:01 17.7 C 10.41 g/m*3 17.7 C 0 km/h
191 17-08-2010 14:20:02 17.3 C 9.28 g/m*3 17.3 C 0 km/h
192 17-08-2010 14:32:02 17.4 C 9.19 g/m*3 17.4 C 0 km/h
193 17-08-2010 14:44:02 18.1 C 8.65 g/m*3 18.1 C 0 km/h
194 17-08-2010 14:56:02 18.2 C 8.24 g/m*3 18.2 C 0 km/h
195 17-08-2010 15:08:01 17.9 C 7.94 g/m*3 17.9 C 0 km/h
196 17-08-2010 15:20:01 18.3 C 7.97 g/m*3 18.3 C 0 km/h
197 17-08-2010 15:32:02 18 C 7.99 g/m*3 18 C 0 km/h
198 17-08-2010 15:44:02 16 C 9.4 g/m*3 16 C 0 km/h
199 17-08-2010 15:56:02 15.2 C 9.99 g/m*3 15.2 C 0 km/h
200 17-08-2010 16:08:02 14.9 C 10.2 g/m*3 14.9 C 0 km/h
Sensor: Nr:Datum:Temp:Abs-Feuchte:Windchill:Wind:
Aussen-T/F 201 17-08-2010 16:20:01 14.6 C 10.01 g/m*3 14.6 C 0 km/h
202 17-08-2010 16:32:02 14.4 C 9.64 g/m*3 14.4 C 0 km/h
203 17-08-2010 16:44:02 14.8 C 9.37 g/m*3 14.8 C 0 km/h
204 17-08-2010 16:56:02 14.8 C 9.5 g/m*3 14.8 C 0 km/h
205 17-08-2010 17:08:02 14.5 C 9.45 g/m*3 14.5 C 0 km/h
206 17-08-2010 17:20:01 14.4 C 9.64 g/m*3 14.4 C 0 km/h
207 17-08-2010 17:32:02 14.2 C 9.77 g/m*3 14.2 C 0 km/h
208 17-08-2010 17:44:02 14.3 C 10.32 g/m*3 14.3 C 0 km/h
209 17-08-2010 17:56:02 14.7 C 10.7 g/m*3 14.7 C 0 km/h
210 17-08-2010 18:08:02 14.3 C 10.57 g/m*3 14.3 C 0 km/h
211 17-08-2010 18:20:02 14.4 C 10.75 g/m*3 14.4 C 0 km/h
212 17-08-2010 18:32:02 14.8 C 11.15 g/m*3 14.8 C 0 km/h
213 17-08-2010 18:44:02 15.2 C 11.29 g/m*3 15.2 C 0 km/h
214 17-08-2010 18:56:02 15.3 C 11.23 g/m*3 15.3 C 0 km/h
215 17-08-2010 19:08:02 15.2 C 11.16 g/m*3 15.2 C 0 km/h
216 17-08-2010 19:20:02 15 C 11.03 g/m*3 15 C 0 km/h
217 17-08-2010 19:32:02 14.8 C 11.02 g/m*3 14.8 C 0 km/h
218 17-08-2010 19:44:02 14.7 C 11.08 g/m*3 14.7 C 0 km/h
219 17-08-2010 19:56:02 14.5 C 10.94 g/m*3 14.5 C 0 km/h
220 17-08-2010 20:08:01 14.4 C 11 g/m*3 14.4 C 0 km/h
221 17-08-2010 20:20:02 14.4 C 11 g/m*3 14.4 C 0 km/h
222 17-08-2010 20:32:02 14.2 C 10.99 g/m*3 14.2 C 0 km/h
223 17-08-2010 20:44:02 14.3 C 11.06 g/m*3 14.3 C 0 km/h
224 17-08-2010 20:56:02 14.3 C 11.06 g/m*3 14.3 C 0 km/h
225 17-08-2010 21:08:03 14.3 C 11.18 g/m*3 14.3 C 0 km/h
Sensor: Nr:Datum:Temp:Abs-Feuchte:Windchill:Wind:
Aussen-T/F 226 17-08-2010 21:20:02 14.3 C 11.18 g/m*3 14.3 C 0 km/h
227 17-08-2010 21:32:02 14.3 C 11.3 g/m*3 14.3 C 0 km/h
228 17-08-2010 21:44:02 14.4 C 11.37 g/m*3 14.4 C 0 km/h
229 17-08-2010 21:57:04 14.6 C 11.51 g/m*3 14.6 C 0 km/h
230 17-08-2010 22:09:05 14.6 C 11.51 g/m*3 14.6 C 0 km/h
231 17-08-2010 22:21:05 14.4 C 11 g/m*3 14.4 C 0 km/h
232 17-08-2010 22:33:05 14.6 C 10.64 g/m*3 14.6 C 0 km/h
233 17-08-2010 22:45:05 14.7 C 10.45 g/m*3 14.7 C 0 km/h
234 17-08-2010 22:57:05 14.8 C 10.13 g/m*3 14.8 C 0 km/h
235 17-08-2010 23:09:05 14.9 C 10.2 g/m*3 14.9 C 0 km/h
236 17-08-2010 23:21:05 14.9 C 10.2 g/m*3 14.9 C 0 km/h
237 17-08-2010 23:33:05 15 C 10 g/m*3 15 C 0 km/h
238 17-08-2010 23:45:05 15 C 9.87 g/m*3 15 C 0 km/h
239 17-08-2010 23:57:05 15.2 C 9.99 g/m*3 15.2 C 0 km/h
240 18-08-2010 00:09:05 15.3 C 9.79 g/m*3 15.3 C 0 km/h
241 18-08-2010 00:21:05 15.4 C 9.72 g/m*3 15.4 C 0 km/h
242 18-08-2010 00:33:05 15.5 C 9.65 g/m*3 15.5 C 0 km/h
243 18-08-2010 00:45:05 15.7 C 9.63 g/m*3 15.7 C 0 km/h
244 18-08-2010 00:57:05 15.7 C 9.5 g/m*3 15.7 C 0 km/h
245 18-08-2010 01:09:05 15.7 C 9.5 g/m*3 15.7 C 0 km/h
246 18-08-2010 01:21:05 15.8 C 9.42 g/m*3 15.8 C 0 km/h
247 18-08-2010 01:33:05 15.8 C 9.42 g/m*3 15.8 C 0 km/h
248 18-08-2010 01:45:05 15.8 C 9.42 g/m*3 15.8 C 0 km/h
249 18-08-2010 01:57:05 15.7 C 9.37 g/m*3 15.7 C 0 km/h
250 18-08-2010 02:09:05 15.5 C 9.39 g/m*3 15.5 C 0 km/h
Sensor: Nr:Datum:Temp:Abs-Feuchte:Windchill:Wind:
Aussen-T/F 251 18-08-2010 02:21:05 15.6 C 9.44 g/m*3 15.6 C 0 km/h
252 18-08-2010 02:33:05 15.5 C 9.39 g/m*3 15.5 C 0 km/h
253 18-08-2010 02:45:06 15.6 C 9.44 g/m*3 15.6 C 0 km/h
254 18-08-2010 02:57:06 15.5 C 9.52 g/m*3 15.5 C 0 km/h
255 18-08-2010 03:09:06 15.5 C 9.52 g/m*3 15.5 C 0 km/h
256 18-08-2010 03:21:06 15.4 C 9.46 g/m*3 15.4 C 0 km/h
257 18-08-2010 03:33:06 15.5 C 9.52 g/m*3 15.5 C 0 km/h
258 18-08-2010 03:45:06 15.4 C 9.46 g/m*3 15.4 C 0 km/h
259 18-08-2010 03:57:06 15.5 C 9.52 g/m*3 15.5 C 0 km/h
260 18-08-2010 04:09:06 15.4 C 9.33 g/m*3 15.4 C 0 km/h
261 18-08-2010 04:21:06 15.4 C 9.46 g/m*3 15.4 C 0 km/h
262 18-08-2010 04:33:06 15.2 C 9.48 g/m*3 15.2 C 0 km/h
263 18-08-2010 04:45:06 15 C 9.62 g/m*3 15 C 0 km/h
264 18-08-2010 04:57:06 15 C 9.87 g/m*3 15 C 0 km/h
265 18-08-2010 05:09:06 15 C 9.87 g/m*3 15 C 0 km/h
266 18-08-2010 05:21:06 15 C 9.75 g/m*3 15 C 0 km/h
267 18-08-2010 05:33:06 14.9 C 9.81 g/m*3 14.9 C 0 km/h
268 18-08-2010 05:45:06 14.9 C 9.81 g/m*3 14.9 C 0 km/h
269 18-08-2010 05:57:06 15 C 9.75 g/m*3 15 C 0 km/h
270 18-08-2010 06:09:06 15 C 9.62 g/m*3 15 C 0 km/h
271 18-08-2010 06:21:04 15 C 9.62 g/m*3 15 C 0 km/h
272 18-08-2010 06:33:04 15 C 9.49 g/m*3 15 C 0 km/h
273 18-08-2010 06:45:02 15.2 C 9.61 g/m*3 15.2 C 0 km/h
274 18-08-2010 06:57:02 15.2 C 9.48 g/m*3 15.2 C 0 km/h
275 18-08-2010 07:09:01 15.2 C 9.48 g/m*3 15.2 C 0 km/h
Sensor: Nr:Datum:Temp:Abs-Feuchte:Windchill:Wind:
Aussen-T/F 276 18-08-2010 07:21:01 15.3 C 9.66 g/m*3 15.3 C 0 km/h
277 18-08-2010 07:33:02 15.4 C 9.72 g/m*3 15.4 C 0 km/h
278 18-08-2010 07:45:02 15.5 C 9.78 g/m*3 15.5 C 0 km/h
279 18-08-2010 07:57:02 15.8 C 9.83 g/m*3 15.8 C 0 km/h
280 18-08-2010 08:09:02 15.9 C 9.89 g/m*3 15.9 C 0 km/h
281 18-08-2010 08:21:01 16 C 9.81 g/m*3 16 C 0 km/h
282 18-08-2010 08:33:02 16.1 C 9.87 g/m*3 16.1 C 0 km/h
283 18-08-2010 08:45:02 16.3 C 9.85 g/m*3 16.3 C 0 km/h
284 18-08-2010 08:57:02 16.5 C 9.97 g/m*3 16.5 C 0 km/h
285 18-08-2010 09:09:02 16.7 C 10.23 g/m*3 16.7 C 0 km/h
286 18-08-2010 09:21:02 17 C 10.13 g/m*3 17 C 0 km/h
287 18-08-2010 09:33:02 17 C 10.13 g/m*3 17 C 0 km/h
288 18-08-2010 09:45:02 17.5 C 10.14 g/m*3 17.5 C 0 km/h
289 18-08-2010 09:57:02 17.3 C 10.16 g/m*3 17.3 C 0 km/h
290 18-08-2010 10:09:02 17.4 C 10.08 g/m*3 17.4 C 0 km/h
291 18-08-2010 10:21:02 17.8 C 10.32 g/m*3 17.8 C 0 km/h
292 18-08-2010 10:33:01 18 C 10.14 g/m*3 18 C 0 km/h
293 18-08-2010 10:45:02 18.5 C 10.28 g/m*3 18.5 C 0 km/h
294 18-08-2010 10:57:02 19.1 C 10.16 g/m*3 19.1 C 0 km/h
295 18-08-2010 11:09:01 18.8 C 9.99 g/m*3 18.8 C 0 km/h
296 18-08-2010 11:21:02 18.9 C 10.21 g/m*3 18.9 C 0 km/h
297 18-08-2010 11:33:02 18.5 C 10.13 g/m*3 18.5 C 0 km/h
298 18-08-2010 11:45:02 18.5 C 10.28 g/m*3 18.5 C 0 km/h
299 18-08-2010 11:57:02 18.8 C 10.31 g/m*3 18.8 C 0 km/h
300 18-08-2010 12:09:02 19.1 C 10.16 g/m*3 19.1 C 0 km/h
Sensor: Nr:Datum:Temp:Abs-Feuchte:Windchill:Wind:
Aussen-T/F 301 18-08-2010 12:21:02 18.9 C 10.69 g/m*3 18.9 C 0 km/h
302 18-08-2010 12:33:02 18.8 C 10.63 g/m*3 18.8 C 0 km/h
303 18-08-2010 12:45:02 18.3 C 10.94 g/m*3 18.3 C 0 km/h
304 18-08-2010 12:57:02 19 C 10.92 g/m*3 19 C 0 km/h
305 18-08-2010 13:09:02 20 C 10.54 g/m*3 20 C 0 km/h
306 18-08-2010 13:21:02 19.8 C 10.76 g/m*3 19.8 C 0 km/h
307 18-08-2010 13:33:02 20.4 C 10.26 g/m*3 20.4 C 0 km/h
308 18-08-2010 13:45:02 21.5 C 9.99 g/m*3 21.5 C 0 km/h
309 18-08-2010 13:57:02 22.3 C 9.48 g/m*3 22.3 C 0 km/h
310 18-08-2010 14:09:02 22.2 C 9.03 g/m*3 22.2 C 0 km/h
311 18-08-2010 14:21:02 22.7 C 9.29 g/m*3 22.7 C 0 km/h
312 18-08-2010 14:33:02 22.7 C 9.29 g/m*3 22.7 C 0 km/h
313 18-08-2010 14:45:02 23.2 C 8.73 g/m*3 23.2 C 0 km/h
314 18-08-2010 14:57:02 23.4 C 8.83 g/m*3 23.4 C 0 km/h
315 18-08-2010 15:09:02 22.5 C 8.99 g/m*3 22.5 C 0 km/h
316 18-08-2010 15:21:02 21.3 C 9.51 g/m*3 21.3 C 0 km/h
317 18-08-2010 15:33:02 22 C 9.12 g/m*3 22 C 0 km/h
318 18-08-2010 15:45:02 22.4 C 8.74 g/m*3 22.4 C 0 km/h
319 18-08-2010 15:57:02 23 C 8.63 g/m*3 23 C 0 km/h
320 18-08-2010 16:09:02 22.7 C 9.09 g/m*3 22.7 C 0 km/h
321 18-08-2010 16:21:02 22.8 C 9.35 g/m*3 22.8 C 0 km/h
322 18-08-2010 16:33:02 23.6 C 9.15 g/m*3 23.6 C 0 km/h
323 18-08-2010 16:45:01 24.5 C 8.73 g/m*3 24.5 C 0 km/h
324 18-08-2010 16:57:01 24.8 C 8.65 g/m*3 24.8 C 0 km/h
325 18-08-2010 17:09:01 24 C 8.7 g/m*3 24 C 0 km/h
Sensor: Nr:Datum:Temp:Abs-Feuchte:Windchill:Wind:
Aussen-T/F 326 18-08-2010 17:21:01 23.2 C 8.94 g/m*3 23.2 C 0 km/h
327 18-08-2010 17:33:02 23.5 C 8.88 g/m*3 23.5 C 0 km/h
328 18-08-2010 17:45:02 24.5 C 8.95 g/m*3 24.5 C 0 km/h
329 18-08-2010 17:57:02 24.2 C 8.8 g/m*3 24.2 C 0 km/h
330 18-08-2010 18:09:02 22.8 C 9.35 g/m*3 22.8 C 0 km/h
331 18-08-2010 18:21:01 22.9 C 9.4 g/m*3 22.9 C 0 km/h
332 18-08-2010 18:33:02 22.2 C 9.03 g/m*3 22.2 C 0 km/h
333 18-08-2010 18:45:02 22 C 9.12 g/m*3 22 C 0 km/h
334 18-08-2010 18:57:02 21.9 C 8.88 g/m*3 21.9 C 0 km/h
335 18-08-2010 19:09:02 21.3 C 8.95 g/m*3 21.3 C 0 km/h
336 18-08-2010 19:21:01 21.1 C 9.03 g/m*3 21.1 C 0 km/h
337 18-08-2010 19:33:02 20.8 C 9.23 g/m*3 20.8 C 0 km/h
338 18-08-2010 19:45:01 20.4 C 9.38 g/m*3 20.4 C 0 km/h
339 18-08-2010 19:57:01 19.8 C 10.08 g/m*3 19.8 C 0 km/h
340 18-08-2010 20:09:02 19.2 C 10.22 g/m*3 19.2 C 0 km/h
341 18-08-2010 20:21:02 19.5 C 10.07 g/m*3 19.5 C 0 km/h
342 18-08-2010 20:33:02 19.5 C 9.9 g/m*3 19.5 C 0 km/h
343 18-08-2010 20:45:02 19.5 C 9.9 g/m*3 19.5 C 0 km/h
344 18-08-2010 20:57:02 19.5 C 9.9 g/m*3 19.5 C 0 km/h
345 18-08-2010 21:09:01 19.3 C 9.95 g/m*3 19.3 C 0 km/h
346 18-08-2010 21:21:02 19.1 C 10 g/m*3 19.1 C 0 km/h
347 18-08-2010 21:33:01 18.7 C 10.25 g/m*3 18.7 C 0 km/h
348 18-08-2010 21:45:02 18.7 C 10.41 g/m*3 18.7 C 0 km/h
349 18-08-2010 21:57:02 18.3 C 10.32 g/m*3 18.3 C 0 km/h
350 18-08-2010 22:09:01 18.1 C 10.51 g/m*3 18.1 C 0 km/h
Sensor: Nr:Datum:Temp:Abs-Feuchte:Windchill:Wind:
Aussen-T/F 351 18-08-2010 22:22:04 17.7 C 10.56 g/m*3 17.7 C 0 km/h
352 18-08-2010 22:34:04 17.5 C 10.59 g/m*3 17.5 C 0 km/h
353 18-08-2010 22:46:04 17.3 C 10.61 g/m*3 17.3 C 0 km/h
354 18-08-2010 22:58:04 17.4 C 10.67 g/m*3 17.4 C 0 km/h
355 18-08-2010 23:10:04 17.6 C 10.8 g/m*3 17.6 C 0 km/h
356 18-08-2010 23:22:04 17.7 C 10.56 g/m*3 17.7 C 0 km/h
357 18-08-2010 23:34:04 17.6 C 10.2 g/m*3 17.6 C 0 km/h
358 18-08-2010 23:46:04 17.5 C 9.69 g/m*3 17.5 C 0 km/h
359 18-08-2010 23:58:04 17.5 C 9.69 g/m*3 17.5 C 0 km/h
360 19-08-2010 00:10:04 17.4 C 9.19 g/m*3 17.4 C 0 km/h
361 19-08-2010 00:22:04 17.4 C 9.34 g/m*3 17.4 C 0 km/h
362 19-08-2010 00:34:04 17.4 C 9.04 g/m*3 17.4 C 0 km/h
363 19-08-2010 00:46:04 17.3 C 9.13 g/m*3 17.3 C 0 km/h
364 19-08-2010 00:58:04 17.3 C 8.99 g/m*3 17.3 C 0 km/h
365 19-08-2010 01:10:04 17.1 C 9.03 g/m*3 17.1 C 0 km/h
366 19-08-2010 01:22:05 17.1 C 9.17 g/m*3 17.1 C 0 km/h
367 19-08-2010 01:34:05 16.8 C 9.29 g/m*3 16.8 C 0 km/h
368 19-08-2010 01:46:05 16.7 C 9.24 g/m*3 16.7 C 0 km/h
369 19-08-2010 01:58:05 16.6 C 9.18 g/m*3 16.6 C 0 km/h
370 19-08-2010 02:10:05 16.5 C 8.85 g/m*3 16.5 C 0 km/h
371 19-08-2010 02:22:05 16.4 C 8.93 g/m*3 16.4 C 0 km/h
372 19-08-2010 02:34:05 16.3 C 8.6 g/m*3 16.3 C 0 km/h
373 19-08-2010 02:46:05 16.2 C 8.69 g/m*3 16.2 C 0 km/h
374 19-08-2010 02:58:05 16.2 C 8.96 g/m*3 16.2 C 0 km/h
375 19-08-2010 03:10:05 16.1 C 9.18 g/m*3 16.1 C 0 km/h
Sensor: Nr:Datum:Temp:Abs-Feuchte:Windchill:Wind:
Aussen-T/F 376 19-08-2010 03:22:05 16 C 9.26 g/m*3 16 C 0 km/h
377 19-08-2010 03:34:05 15.9 C 9.34 g/m*3 15.9 C 0 km/h
378 19-08-2010 03:46:05 15.8 C 9.15 g/m*3 15.8 C 0 km/h
379 19-08-2010 03:58:05 15.7 C 9.1 g/m*3 15.7 C 0 km/h
380 19-08-2010 04:10:05 15.7 C 9.23 g/m*3 15.7 C 0 km/h
381 19-08-2010 04:22:05 15.6 C 9.18 g/m*3 15.6 C 0 km/h
382 19-08-2010 04:34:05 15.5 C 9.39 g/m*3 15.5 C 0 km/h
383 19-08-2010 04:46:05 15.4 C 9.46 g/m*3 15.4 C 0 km/h
384 19-08-2010 04:58:05 15.5 C 9.65 g/m*3 15.5 C 0 km/h
385 19-08-2010 05:10:05 15.3 C 9.53 g/m*3 15.3 C 0 km/h
386 19-08-2010 05:22:05 15.2 C 9.48 g/m*3 15.2 C 0 km/h
387 19-08-2010 05:34:05 15 C 9.23 g/m*3 15 C 0 km/h
388 19-08-2010 05:46:05 15 C 9.36 g/m*3 15 C 0 km/h
389 19-08-2010 05:58:06 15 C 8.98 g/m*3 15 C 0 km/h
390 19-08-2010 06:10:06 14.8 C 8.99 g/m*3 14.8 C 0 km/h
391 19-08-2010 06:22:06 14.4 C 8.9 g/m*3 14.4 C 0 km/h
392 19-08-2010 06:34:06 14.2 C 8.91 g/m*3 14.2 C 0 km/h
393 19-08-2010 06:46:06 13.7 C 8.76 g/m*3 13.7 C 0 km/h
394 19-08-2010 06:58:06 13.8 C 8.94 g/m*3 13.8 C 0 km/h
395 19-08-2010 07:10:06 13.7 C 8.76 g/m*3 13.7 C 0 km/h
396 19-08-2010 07:22:06 13.9 C 8.15 g/m*3 13.9 C 0 km/h
397 19-08-2010 07:34:06 13.9 C 8.15 g/m*3 13.9 C 0 km/h
398 19-08-2010 07:46:01 14 C 8.08 g/m*3 14 C 0 km/h
399 19-08-2010 07:58:01 14.1 C 7.89 g/m*3 14.1 C 0 km/h
400 19-08-2010 08:10:02 14.4 C 7.91 g/m*3 14.4 C 0 km/h
Sensor: Nr:Datum:Temp:Abs-Feuchte:Windchill:Wind:
Aussen-T/F 401 19-08-2010 08:22:01 14.6 C 8.01 g/m*3 14.6 C 0 km/h
402 19-08-2010 08:34:01 14.8 C 8.11 g/m*3 14.8 C 0 km/h
403 19-08-2010 08:46:01 14.9 C 8.16 g/m*3 14.9 C 0 km/h
404 19-08-2010 08:58:01 15.2 C 8.05 g/m*3 15.2 C 0 km/h
405 19-08-2010 09:10:02 15.3 C 8.23 g/m*3 15.3 C 0 km/h
406 19-08-2010 09:22:01 15.4 C 8.15 g/m*3 15.4 C 0 km/h
407 19-08-2010 09:34:01 15.7 C 8.03 g/m*3 15.7 C 0 km/h
408 19-08-2010 09:46:01 16 C 8.04 g/m*3 16 C 0 km/h
409 19-08-2010 09:58:01 16.2 C 7.86 g/m*3 16.2 C 0 km/h
410 19-08-2010 10:10:02 16.6 C 7.91 g/m*3 16.6 C 0 km/h
411 19-08-2010 10:22:02 17.1 C 7.71 g/m*3 17.1 C 0 km/h
412 19-08-2010 10:34:02 17.7 C 7.69 g/m*3 17.7 C 0 km/h
413 19-08-2010 10:46:02 18.8 C 7.73 g/m*3 18.8 C 0 km/h
414 19-08-2010 10:58:02 19.3 C 7.3 g/m*3 19.3 C 0 km/h
415 19-08-2010 11:10:02 19.2 C 7.26 g/m*3 19.2 C 0 km/h
416 19-08-2010 11:22:02 19.5 C 7.38 g/m*3 19.5 C 0 km/h
417 19-08-2010 11:34:03 20.2 C 6.99 g/m*3 20.2 C 0 km/h
418 19-08-2010 11:46:02 20.4 C 7.43 g/m*3 20.4 C 0 km/h
419 19-08-2010 11:58:02 20.7 C 7.2 g/m*3 20.7 C 0 km/h
420 19-08-2010 12:10:01 20.3 C 7.03 g/m*3 20.3 C 0 km/h
421 19-08-2010 12:22:02 20.8 C 6.88 g/m*3 20.8 C 0 km/h
422 19-08-2010 12:34:02 22.1 C 6.64 g/m*3 22.1 C 0 km/h
423 19-08-2010 12:46:02 22 C 6.4 g/m*3 22 C 0 km/h
424 19-08-2010 12:58:02 22 C 6.21 g/m*3 22 C 0 km/h
425 19-08-2010 13:10:03 22.1 C 6.25 g/m*3 22.1 C 0 km/h
Sensor: Nr:Datum:Temp:Abs-Feuchte:Windchill:Wind:
Aussen-T/F 426 19-08-2010 13:22:02 22.1 C 6.05 g/m*3 22.1 C 0 km/h
427 19-08-2010 13:34:02 22.6 C 6.23 g/m*3 22.6 C 0 km/h
428 19-08-2010 13:46:01 22.7 C 6.06 g/m*3 22.7 C 0 km/h
429 19-08-2010 13:58:01 23.7 C 6.2 g/m*3 23.7 C 0 km/h
430 19-08-2010 14:10:02 23.3 C 6.27 g/m*3 23.3 C 0 km/h
431 19-08-2010 14:22:01 22.8 C 6.1 g/m*3 22.8 C 0 km/h
432 19-08-2010 14:34:01 23.7 C 5.78 g/m*3 23.7 C 0 km/h
433 19-08-2010 14:46:01 23 C 5.55 g/m*3 23 C 0 km/h
434 19-08-2010 14:58:01 22.4 C 6.36 g/m*3 22.4 C 0 km/h
435 19-08-2010 15:10:02 22.4 C 6.95 g/m*3 22.4 C 0 km/h
436 19-08-2010 15:22:01 23.2 C 6.44 g/m*3 23.2 C 0 km/h
437 19-08-2010 15:34:01 24.3 C 5.97 g/m*3 24.3 C 0 km/h
438 19-08-2010 15:46:01 24.6 C 5.63 g/m*3 24.6 C 0 km/h
439 19-08-2010 15:58:01 24.2 C 5.94 g/m*3 24.2 C 0 km/h
440 19-08-2010 16:10:01 23.4 C 7.36 g/m*3 23.4 C 0 km/h
441 19-08-2010 16:22:02 23.5 C 7.4 g/m*3 23.5 C 0 km/h
442 19-08-2010 16:34:01 23.5 C 7.82 g/m*3 23.5 C 0 km/h
443 19-08-2010 16:46:03 23.1 C 7.65 g/m*3 23.1 C 0 km/h
444 19-08-2010 16:58:03 22.9 C 7.97 g/m*3 22.9 C 0 km/h
445 19-08-2010 17:10:02 22.4 C 8.14 g/m*3 22.4 C 0 km/h
446 19-08-2010 17:22:02 22.9 C 8.17 g/m*3 22.9 C 0 km/h
447 19-08-2010 17:34:02 24.1 C 8.1 g/m*3 24.1 C 0 km/h
448 19-08-2010 17:46:02 24.5 C 7.39 g/m*3 24.5 C 0 km/h
449 19-08-2010 17:58:02 25.6 C 5.48 g/m*3 25.6 C 0 km/h
450 19-08-2010 18:10:01 25.1 C 5.32 g/m*3 25.1 C 0 km/h
Sensor: Nr:Datum:Temp:Abs-Feuchte:Windchill:Wind:
Aussen-T/F 451 19-08-2010 18:22:02 25 C 5.75 g/m*3 25 C 0 km/h
452 19-08-2010 18:34:02 25.3 C 5.85 g/m*3 25.3 C 0 km/h
453 19-08-2010 18:46:02 25.7 C 5.99 g/m*3 25.7 C 0 km/h
454 19-08-2010 18:58:02 26 C 5.84 g/m*3 26 C 0 km/h
455 19-08-2010 19:10:03 25.8 C 6.98 g/m*3 25.8 C 0 km/h
456 19-08-2010 19:22:02 25.8 C 6.26 g/m*3 25.8 C 0 km/h
457 19-08-2010 19:34:02 25.6 C 6.67 g/m*3 25.6 C 0 km/h
458 19-08-2010 19:46:01 24.9 C 6.87 g/m*3 24.9 C 0 km/h
459 19-08-2010 19:58:01 24.1 C 6.35 g/m*3 24.1 C 0 km/h
460 19-08-2010 20:10:02 22.8 C 6.71 g/m*3 22.8 C 0 km/h
461 19-08-2010 20:22:01 21.3 C 7.08 g/m*3 21.3 C 0 km/h
462 19-08-2010 20:34:02 20.1 C 7.13 g/m*3 20.1 C 0 km/h
463 19-08-2010 20:46:01 19.4 C 7.17 g/m*3 19.4 C 0 km/h
464 19-08-2010 20:58:01 18.9 C 7.45 g/m*3 18.9 C 0 km/h
465 19-08-2010 21:10:02 18.5 C 7.44 g/m*3 18.5 C 0 km/h
466 19-08-2010 21:22:01 18.3 C 7.82 g/m*3 18.3 C 0 km/h
467 19-08-2010 21:34:02 18.2 C 7.77 g/m*3 18.2 C 0 km/h
468 19-08-2010 21:46:01 17.9 C 8.09 g/m*3 17.9 C 0 km/h
469 19-08-2010 21:58:01 17.5 C 7.75 g/m*3 17.5 C 0 km/h
470 19-08-2010 22:10:02 17.3 C 7.96 g/m*3 17.3 C 0 km/h
471 19-08-2010 22:22:02 17.1 C 8.01 g/m*3 17.1 C 0 km/h
472 19-08-2010 22:34:02 17 C 7.96 g/m*3 17 C 0 km/h
473 19-08-2010 22:47:36 16.6 C 8.05 g/m*3 16.6 C 0 km/h
474 19-08-2010 22:59:36 16.3 C 8.05 g/m*3 16.3 C 0 km/h
475 19-08-2010 23:11:36 16 C 8.17 g/m*3 16 C 0 km/h
Sensor: Nr:Datum:Temp:Abs-Feuchte:Windchill:Wind:
Aussen-T/F 476 19-08-2010 23:23:36 15.8 C 8.48 g/m*3 15.8 C 0 km/h
477 19-08-2010 23:35:36 15.6 C 8.38 g/m*3 15.6 C 0 km/h
478 19-08-2010 23:47:36 15.5 C 8.46 g/m*3 15.5 C 0 km/h
479 19-08-2010 23:59:36 15.2 C 8.31 g/m*3 15.2 C 0 km/h
480 20-08-2010 00:11:36 15.1 C 8.51 g/m*3 15.1 C 0 km/h
481 20-08-2010 00:23:36 14.9 C 8.54 g/m*3 14.9 C 0 km/h
482 20-08-2010 00:35:36 14.7 C 8.56 g/m*3 14.7 C 0 km/h
483 20-08-2010 00:47:36 14.5 C 8.58 g/m*3 14.5 C 0 km/h
484 20-08-2010 00:59:36 14.4 C 8.53 g/m*3 14.4 C 0 km/h
485 20-08-2010 01:11:36 14.3 C 8.6 g/m*3 14.3 C 0 km/h
486 20-08-2010 01:23:36 14.2 C 8.67 g/m*3 14.2 C 0 km/h
487 20-08-2010 01:35:36 13.9 C 8.63 g/m*3 13.9 C 0 km/h
488 20-08-2010 01:47:37 14 C 8.56 g/m*3 14 C 0 km/h
489 20-08-2010 01:59:37 13.8 C 8.58 g/m*3 13.8 C 0 km/h
490 20-08-2010 02:11:37 13.6 C 8.59 g/m*3 13.6 C 0 km/h
491 20-08-2010 02:23:37 13.5 C 8.54 g/m*3 13.5 C 0 km/h
492 20-08-2010 02:35:37 13.3 C 8.66 g/m*3 13.3 C 0 km/h
493 20-08-2010 02:47:37 13.2 C 8.61 g/m*3 13.2 C 0 km/h
494 20-08-2010 02:59:37 13.1 C 8.56 g/m*3 13.1 C 0 km/h
495 20-08-2010 03:11:37 13 C 8.62 g/m*3 13 C 0 km/h
496 20-08-2010 03:23:03 12.9 C 8.68 g/m*3 12.9 C 0 km/h
497 20-08-2010 03:35:03 12.8 C 8.62 g/m*3 12.8 C 0 km/h
498 20-08-2010 03:47:03 12.7 C 8.57 g/m*3 12.7 C 0 km/h
499 20-08-2010 03:59:03 12.6 C 8.63 g/m*3 12.6 C 0 km/h
500 20-08-2010 04:11:03 12.4 C 8.63 g/m*3 12.4 C 0 km/h
Sensor: Nr:Datum:Temp:Abs-Feuchte:Windchill:Wind:
Aussen-T/F 501 20-08-2010 04:23:03 12.4 C 8.63 g/m*3 12.4 C 0 km/h
502 20-08-2010 04:35:03 12.3 C 8.58 g/m*3 12.3 C 0 km/h
503 20-08-2010 04:47:03 12.1 C 8.47 g/m*3 12.1 C 0 km/h
504 20-08-2010 04:59:03 12.1 C 8.58 g/m*3 12.1 C 0 km/h
505 20-08-2010 05:11:03 12 C 8.53 g/m*3 12 C 0 km/h
506 20-08-2010 05:23:03 12 C 8.63 g/m*3 12 C 0 km/h
507 20-08-2010 05:35:03 12 C 8.53 g/m*3 12 C 0 km/h
508 20-08-2010 05:47:03 11.8 C 8.53 g/m*3 11.8 C 0 km/h
509 20-08-2010 05:59:03 11.7 C 8.58 g/m*3 11.7 C 0 km/h
510 20-08-2010 06:11:03 11.6 C 8.52 g/m*3 11.6 C 0 km/h
511 20-08-2010 06:23:04 11.5 C 8.57 g/m*3 11.5 C 0 km/h
512 20-08-2010 06:35:04 11.4 C 8.52 g/m*3 11.4 C 0 km/h
513 20-08-2010 06:47:04 11.4 C 8.52 g/m*3 11.4 C 0 km/h
514 20-08-2010 06:59:04 11.5 C 8.57 g/m*3 11.5 C 0 km/h
515 20-08-2010 07:11:04 11.6 C 8.63 g/m*3 11.6 C 0 km/h
516 20-08-2010 07:23:04 11.6 C 8.73 g/m*3 11.6 C 0 km/h
517 20-08-2010 07:35:03 11.7 C 8.79 g/m*3 11.7 C 0 km/h
518 20-08-2010 07:47:03 11.8 C 8.84 g/m*3 11.8 C 0 km/h
519 20-08-2010 07:59:03 12.1 C 8.9 g/m*3 12.1 C 0 km/h
520 20-08-2010 08:11:02 12.1 C 9.01 g/m*3 12.1 C 0 km/h
521 20-08-2010 08:23:02 12.3 C 9.12 g/m*3 12.3 C 0 km/h
522 20-08-2010 08:35:02 12.5 C 9.24 g/m*3 12.5 C 0 km/h
523 20-08-2010 08:47:02 12.8 C 9.3 g/m*3 12.8 C 0 km/h
524 20-08-2010 08:59:02 13 C 9.3 g/m*3 13 C 0 km/h
525 20-08-2010 09:11:02 13.3 C 9.47 g/m*3 13.3 C 0 km/h
Sensor: Nr:Datum:Temp:Abs-Feuchte:Windchill:Wind:
Aussen-T/F 526 20-08-2010 09:23:02 13.8 C 9.77 g/m*3 13.8 C 0 km/h
527 20-08-2010 09:35:02 14.4 C 9.89 g/m*3 14.4 C 0 km/h
528 20-08-2010 09:47:02 15 C 10 g/m*3 15 C 0 km/h
529 20-08-2010 09:59:02 16 C 10.08 g/m*3 16 C 0 km/h
530 20-08-2010 10:11:01 16.8 C 10.29 g/m*3 16.8 C 0 km/h
531 20-08-2010 10:23:01 17.4 C 10.23 g/m*3 17.4 C 0 km/h
532 20-08-2010 10:35:02 18.1 C 10.2 g/m*3 18.1 C 0 km/h
533 20-08-2010 10:47:02 18.6 C 10.35 g/m*3 18.6 C 0 km/h
534 20-08-2010 10:59:02 19.2 C 10.39 g/m*3 19.2 C 0 km/h
535 20-08-2010 11:11:02 19.8 C 10.76 g/m*3 19.8 C 0 km/h
536 20-08-2010 11:23:02 20.5 C 10.68 g/m*3 20.5 C 0 km/h
537 20-08-2010 11:35:02 20.9 C 10.75 g/m*3 20.9 C 0 km/h
538 20-08-2010 11:47:02 21.7 C 11.06 g/m*3 21.7 C 0 km/h
539 20-08-2010 11:59:02 22 C 11.06 g/m*3 22 C 0 km/h
540 20-08-2010 12:11:02 22.8 C 10.97 g/m*3 22.8 C 0 km/h
541 20-08-2010 12:23:02 23.2 C 10.6 g/m*3 23.2 C 0 km/h
542 20-08-2010 12:35:02 23.7 C 11.12 g/m*3 23.7 C 0 km/h
543 20-08-2010 12:47:01 24.1 C 10.72 g/m*3 24.1 C 0 km/h
544 20-08-2010 12:59:01 25 C 10.82 g/m*3 25 C 0 km/h
545 20-08-2010 13:11:01 25.6 C 9.52 g/m*3 25.6 C 0 km/h
546 20-08-2010 13:23:01 26.4 C 9.71 g/m*3 26.4 C 0 km/h
547 20-08-2010 13:35:01 27 C 9.01 g/m*3 27 C 0 km/h
548 20-08-2010 13:47:02 27.5 C 9 g/m*3 27.5 C 0 km/h
549 20-08-2010 13:59:02 27.3 C 7.85 g/m*3 27.3 C 0 km/h
550 20-08-2010 14:11:02 27.8 C 8.07 g/m*3 27.8 C 0 km/h
Sensor: Nr:Datum:Temp:Abs-Feuchte:Windchill:Wind:
Aussen-T/F 551 20-08-2010 14:23:03 28.4 C 8.06 g/m*3 28.4 C 0 km/h
552 20-08-2010 14:35:02 28.1 C 7.11 g/m*3 28.1 C 0 km/h
553 20-08-2010 14:47:02 28.6 C 8.43 g/m*3 28.6 C 0 km/h
554 20-08-2010 14:59:02 28.9 C 7.43 g/m*3 28.9 C 0 km/h
555 20-08-2010 15:11:02 28.9 C 7.43 g/m*3 28.9 C 0 km/h
556 20-08-2010 15:23:02 29 C 7.18 g/m*3 29 C 0 km/h
557 20-08-2010 15:35:01 29.5 C 7.67 g/m*3 29.5 C 0 km/h
558 20-08-2010 15:47:02 30.1 C 7.32 g/m*3 30.1 C 0 km/h
559 20-08-2010 15:59:02 30.2 C 7.66 g/m*3 30.2 C 0 km/h
560 20-08-2010 16:11:01 30.4 C 7.75 g/m*3 30.4 C 0 km/h
561 20-08-2010 16:23:02 30.5 C 7.48 g/m*3 30.5 C 0 km/h
562 20-08-2010 16:35:02 30.9 C 7.96 g/m*3 30.9 C 0 km/h
563 20-08-2010 16:47:02 31 C 7.36 g/m*3 31 C 0 km/h
564 20-08-2010 16:59:02 30.8 C 7.28 g/m*3 30.8 C 0 km/h
565 20-08-2010 17:11:02 30.9 C 7.64 g/m*3 30.9 C 0 km/h
566 20-08-2010 17:23:02 31.2 C 7.12 g/m*3 31.2 C 0 km/h
567 20-08-2010 17:35:02 31.3 C 7.48 g/m*3 31.3 C 0 km/h
568 20-08-2010 17:47:02 31.4 C 7.19 g/m*3 31.4 C 0 km/h
569 20-08-2010 17:59:02 31 C 7.04 g/m*3 31 C 0 km/h
570 20-08-2010 18:11:02 31.3 C 7.48 g/m*3 31.3 C 0 km/h
571 20-08-2010 18:23:02 31.4 C 7.52 g/m*3 31.4 C 0 km/h
572 20-08-2010 18:35:02 31.5 C 7.56 g/m*3 31.5 C 0 km/h
573 20-08-2010 18:47:02 31 C 7.36 g/m*3 31 C 0 km/h
574 20-08-2010 18:59:02 30.9 C 8.28 g/m*3 30.9 C 0 km/h
575 20-08-2010 19:11:02 30.6 C 8.46 g/m*3 30.6 C 0 km/h
Sensor: Nr:Datum:Temp:Abs-Feuchte:Windchill:Wind:
Aussen-T/F 576 20-08-2010 19:23:03 30.3 C 8.63 g/m*3 30.3 C 0 km/h
577 20-08-2010 19:35:01 30 C 8.49 g/m*3 30 C 0 km/h
578 20-08-2010 19:47:02 29 C 8.04 g/m*3 29 C 0 km/h
579 20-08-2010 19:59:02 28 C 8.43 g/m*3 28 C 0 km/h
580 20-08-2010 20:11:02 26.6 C 8.81 g/m*3 26.6 C 0 km/h
581 20-08-2010 20:23:02 25.6 C 9.05 g/m*3 25.6 C 0 km/h
582 20-08-2010 20:35:01 25 C 9.21 g/m*3 25 C 0 km/h
583 20-08-2010 20:47:02 24.5 C 8.95 g/m*3 24.5 C 0 km/h
584 20-08-2010 20:59:03 23.8 C 9.25 g/m*3 23.8 C 0 km/h
585 20-08-2010 21:11:01 23.4 C 9.25 g/m*3 23.4 C 0 km/h
586 20-08-2010 21:23:01 23.3 C 9.41 g/m*3 23.3 C 0 km/h
587 20-08-2010 21:35:01 23.2 C 9.56 g/m*3 23.2 C 0 km/h
588 20-08-2010 21:47:02 22.9 C 9.81 g/m*3 22.9 C 0 km/h
589 20-08-2010 21:59:02 22.6 C 9.84 g/m*3 22.6 C 0 km/h
590 20-08-2010 22:11:02 22.5 C 9.99 g/m*3 22.5 C 0 km/h
591 20-08-2010 22:23:03 22.1 C 9.96 g/m*3 22.1 C 0 km/h
592 20-08-2010 22:35:02 21.9 C 10.42 g/m*3 21.9 C 0 km/h
593 20-08-2010 22:48:02 21.6 C 10.43 g/m*3 21.6 C 0 km/h
594 20-08-2010 23:00:02 21.4 C 10.5 g/m*3 21.4 C 0 km/h
595 20-08-2010 23:12:02 21.1 C 10.69 g/m*3 21.1 C 0 km/h
596 20-08-2010 23:24:02 20.9 C 10.75 g/m*3 20.9 C 0 km/h
597 20-08-2010 23:36:02 20.7 C 10.62 g/m*3 20.7 C 0 km/h
598 20-08-2010 23:48:02 20.4 C 10.61 g/m*3 20.4 C 0 km/h
599 21-08-2010 00:00:02 20.2 C 10.67 g/m*3 20.2 C 0 km/h
600 21-08-2010 00:12:02 20 C 10.71 g/m*3 20 C 0 km/h
Sensor: Nr:Datum:Temp:Abs-Feuchte:Windchill:Wind:
Aussen-T/F 601 21-08-2010 00:24:02 19.7 C 10.7 g/m*3 19.7 C 0 km/h
602 21-08-2010 00:36:02 19.6 C 10.8 g/m*3 19.6 C 0 km/h
603 21-08-2010 00:48:02 19.3 C 10.95 g/m*3 19.3 C 0 km/h
604 21-08-2010 01:00:02 19.1 C 10.98 g/m*3 19.1 C 0 km/h
605 21-08-2010 01:12:02 19 C 10.92 g/m*3 19 C 0 km/h
606 21-08-2010 01:24:02 18.8 C 11.11 g/m*3 18.8 C 0 km/h
607 21-08-2010 01:36:02 18.7 C 11.05 g/m*3 18.7 C 0 km/h
608 21-08-2010 01:48:02 18.6 C 10.98 g/m*3 18.6 C 0 km/h
609 21-08-2010 02:00:02 18.4 C 11.01 g/m*3 18.4 C 0 km/h
610 21-08-2010 02:12:02 18.2 C 11.04 g/m*3 18.2 C 0 km/h
611 21-08-2010 02:24:03 18.1 C 10.97 g/m*3 18.1 C 0 km/h
612 21-08-2010 02:36:03 18.1 C 11.12 g/m*3 18.1 C 0 km/h
613 21-08-2010 02:48:03 18 C 11.06 g/m*3 18 C 0 km/h
614 21-08-2010 03:00:03 17.9 C 11.15 g/m*3 17.9 C 0 km/h
615 21-08-2010 03:12:03 17.8 C 11.08 g/m*3 17.8 C 0 km/h
616 21-08-2010 03:24:03 17.7 C 11.16 g/m*3 17.7 C 0 km/h
617 21-08-2010 03:36:03 17.5 C 11.03 g/m*3 17.5 C 0 km/h
618 21-08-2010 03:48:03 17.4 C 11.12 g/m*3 17.4 C 0 km/h
619 21-08-2010 04:00:03 17.3 C 11.2 g/m*3 17.3 C 0 km/h
620 21-08-2010 04:12:03 17.2 C 11.13 g/m*3 17.2 C 0 km/h
621 21-08-2010 04:24:03 17.1 C 11.06 g/m*3 17.1 C 0 km/h
622 21-08-2010 04:36:03 16.9 C 11.08 g/m*3 16.9 C 0 km/h
623 21-08-2010 04:48:03 16.8 C 11.15 g/m*3 16.8 C 0 km/h
624 21-08-2010 05:00:03 16.7 C 11.08 g/m*3 16.7 C 0 km/h
625 21-08-2010 05:12:03 16.5 C 10.95 g/m*3 16.5 C 0 km/h
Sensor: Nr:Datum:Temp:Abs-Feuchte:Windchill:Wind:
Aussen-T/F 626 21-08-2010 05:24:03 16.5 C 10.95 g/m*3 16.5 C 0 km/h
627 21-08-2010 05:36:03 16.3 C 10.82 g/m*3 16.3 C 0 km/h
628 21-08-2010 05:48:03 16.3 C 10.96 g/m*3 16.3 C 0 km/h
629 21-08-2010 06:00:03 16.2 C 10.89 g/m*3 16.2 C 0 km/h
630 21-08-2010 06:12:03 16.1 C 10.83 g/m*3 16.1 C 0 km/h
631 21-08-2010 06:24:04 16 C 10.9 g/m*3 16 C 0 km/h
632 21-08-2010 06:36:04 16 C 10.9 g/m*3 16 C 0 km/h
633 21-08-2010 06:48:04 15.9 C 10.97 g/m*3 15.9 C 0 km/h
634 21-08-2010 07:00:04 15.8 C 10.9 g/m*3 15.8 C 0 km/h
635 21-08-2010 07:12:04 15.9 C 11.1 g/m*3 15.9 C 0 km/h
636 21-08-2010 07:24:04 16 C 11.04 g/m*3 16 C 0 km/h
637 21-08-2010 07:36:04 16.1 C 11.1 g/m*3 16.1 C 0 km/h
638 21-08-2010 07:48:04 16.2 C 11.17 g/m*3 16.2 C 0 km/h
639 21-08-2010 08:00:04 16.4 C 11.31 g/m*3 16.4 C 0 km/h
640 21-08-2010 08:12:02 16.6 C 11.58 g/m*3 16.6 C 0 km/h
641 21-08-2010 08:24:02 16.7 C 11.51 g/m*3 16.7 C 0 km/h
642 21-08-2010 08:36:02 17 C 11.58 g/m*3 17 C 0 km/h
643 21-08-2010 08:48:01 17.2 C 11.72 g/m*3 17.2 C 0 km/h
644 21-08-2010 09:00:01 17.5 C 11.78 g/m*3 17.5 C 0 km/h
645 21-08-2010 09:12:02 17.9 C 12.06 g/m*3 17.9 C 0 km/h
646 21-08-2010 09:24:02 18.4 C 12.27 g/m*3 18.4 C 0 km/h
647 21-08-2010 09:36:01 18.9 C 12.47 g/m*3 18.9 C 0 km/h
648 21-08-2010 09:48:02 19.4 C 12.51 g/m*3 19.4 C 0 km/h
649 21-08-2010 10:00:02 20.2 C 12.76 g/m*3 20.2 C 0 km/h
650 21-08-2010 10:12:02 20.8 C 12.86 g/m*3 20.8 C 0 km/h
Sensor: Nr:Datum:Temp:Abs-Feuchte:Windchill:Wind:
Aussen-T/F 651 21-08-2010 10:24:02 21.3 C 12.86 g/m*3 21.3 C 0 km/h
652 21-08-2010 10:36:01 22 C 12.81 g/m*3 22 C 0 km/h
653 21-08-2010 10:48:02 22.7 C 12.93 g/m*3 22.7 C 0 km/h
654 21-08-2010 11:00:02 23.3 C 12.96 g/m*3 23.3 C 0 km/h
655 21-08-2010 11:12:01 24 C 12.84 g/m*3 24 C 0 km/h
656 21-08-2010 11:24:02 24.7 C 12.68 g/m*3 24.7 C 0 km/h
657 21-08-2010 11:36:02 25.5 C 11.6 g/m*3 25.5 C 0 km/h
658 21-08-2010 11:48:01 26.3 C 10.4 g/m*3 26.3 C 0 km/h
659 21-08-2010 12:00:01 26.8 C 9.93 g/m*3 26.8 C 0 km/h
660 21-08-2010 12:12:01 27.2 C 9.89 g/m*3 27.2 C 0 km/h
661 21-08-2010 12:24:01 27.7 C 9.9 g/m*3 27.7 C 0 km/h
662 21-08-2010 12:36:01 27.9 C 10.01 g/m*3 27.9 C 0 km/h
663 21-08-2010 12:48:02 28.1 C 9.3 g/m*3 28.1 C 0 km/h
664 21-08-2010 13:00:02 28.4 C 9.73 g/m*3 28.4 C 0 km/h
665 21-08-2010 13:12:02 28.8 C 9.38 g/m*3 28.8 C 0 km/h
666 21-08-2010 13:24:01 29.2 C 9 g/m*3 29.2 C 0 km/h
667 21-08-2010 13:36:02 29.5 C 8.85 g/m*3 29.5 C 0 km/h
668 21-08-2010 13:48:01 29.7 C 8.95 g/m*3 29.7 C 0 km/h
669 21-08-2010 14:00:01 29.9 C 9.05 g/m*3 29.9 C 0 km/h
670 21-08-2010 14:12:02 30.3 C 8.94 g/m*3 30.3 C 0 km/h
671 21-08-2010 14:24:01 30.3 C 8.63 g/m*3 30.3 C 0 km/h
672 21-08-2010 14:36:02 30.6 C 8.46 g/m*3 30.6 C 0 km/h
673 21-08-2010 14:48:01 31 C 8.32 g/m*3 31 C 0 km/h
674 21-08-2010 15:00:01 30.8 C 8.55 g/m*3 30.8 C 0 km/h
675 21-08-2010 15:12:02 31.4 C 8.83 g/m*3 31.4 C 0 km/h
Sensor: Nr:Datum:Temp:Abs-Feuchte:Windchill:Wind:
Aussen-T/F 676 21-08-2010 15:24:02 31.4 C 8.17 g/m*3 31.4 C 0 km/h
677 21-08-2010 15:36:02 31.2 C 9.06 g/m*3 31.2 C 0 km/h
678 21-08-2010 15:48:02 31.6 C 7.93 g/m*3 31.6 C 0 km/h
679 21-08-2010 16:00:02 32.1 C 7.81 g/m*3 32.1 C 0 km/h
680 21-08-2010 16:12:02 32.2 C 7.51 g/m*3 32.2 C 0 km/h
681 21-08-2010 16:24:02 32.5 C 7.28 g/m*3 32.5 C 0 km/h
682 21-08-2010 16:36:01 32.1 C 7.81 g/m*3 32.1 C 0 km/h
683 21-08-2010 16:48:02 31.8 C 9.02 g/m*3 31.8 C 0 km/h
684 21-08-2010 17:00:02 32.1 C 8.15 g/m*3 32.1 C 0 km/h
685 21-08-2010 17:12:01 32.4 C 7.59 g/m*3 32.4 C 0 km/h
686 21-08-2010 17:24:02 32.3 C 7.55 g/m*3 32.3 C 0 km/h
687 21-08-2010 17:36:02 32.8 C 7.4 g/m*3 32.8 C 0 km/h
688 21-08-2010 17:48:02 32.3 C 7.2 g/m*3 32.3 C 0 km/h
689 21-08-2010 18:00:02 32.6 C 7.32 g/m*3 32.6 C 0 km/h
690 21-08-2010 18:12:02 32.5 C 7.63 g/m*3 32.5 C 0 km/h
691 21-08-2010 18:24:02 32.7 C 7.36 g/m*3 32.7 C 0 km/h
692 21-08-2010 18:36:02 32.3 C 7.55 g/m*3 32.3 C 0 km/h
693 21-08-2010 18:48:02 32 C 7.09 g/m*3 32 C 0 km/h
694 21-08-2010 19:00:02 31.9 C 7.05 g/m*3 31.9 C 0 km/h
695 21-08-2010 19:12:02 32 C 7.76 g/m*3 32 C 0 km/h
696 21-08-2010 19:24:01 31.7 C 7.64 g/m*3 31.7 C 0 km/h
697 21-08-2010 19:36:02 31.5 C 8.22 g/m*3 31.5 C 0 km/h
698 21-08-2010 19:48:02 31.2 C 9.06 g/m*3 31.2 C 0 km/h
699 21-08-2010 20:00:02 30.6 C 8.46 g/m*3 30.6 C 0 km/h
700 21-08-2010 20:12:02 30 C 9.4 g/m*3 30 C 0 km/h
Sensor: Nr:Datum:Temp:Abs-Feuchte:Windchill:Wind:
Aussen-T/F 701 21-08-2010 20:24:01 28.5 C 9.22 g/m*3 28.5 C 0 km/h
702 21-08-2010 20:36:02 28.1 C 9.57 g/m*3 28.1 C 0 km/h
703 21-08-2010 20:48:02 26.9 C 9.73 g/m*3 26.9 C 0 km/h
704 21-08-2010 21:00:02 26.5 C 10.01 g/m*3 26.5 C 0 km/h
705 21-08-2010 21:12:02 26.2 C 10.09 g/m*3 26.2 C 0 km/h
706 21-08-2010 21:24:02 25.8 C 10.35 g/m*3 25.8 C 0 km/h
707 21-08-2010 21:36:02 25.3 C 10.3 g/m*3 25.3 C 0 km/h
708 21-08-2010 21:48:02 24.8 C 10.47 g/m*3 24.8 C 0 km/h
709 21-08-2010 22:00:02 24.8 C 10.7 g/m*3 24.8 C 0 km/h
710 21-08-2010 22:12:02 24.5 C 10.74 g/m*3 24.5 C 0 km/h
711 21-08-2010 22:24:02 24.4 C 10.9 g/m*3 24.4 C 0 km/h
712 21-08-2010 22:36:02 24.1 C 10.94 g/m*3 24.1 C 0 km/h
713 21-08-2010 22:48:01 23.9 C 11.03 g/m*3 23.9 C 0 km/h
714 21-08-2010 23:00:01 23.6 C 10.85 g/m*3 23.6 C 0 km/h
715 21-08-2010 23:12:02 23.4 C 11.35 g/m*3 23.4 C 0 km/h
716 21-08-2010 23:24:01 23.3 C 11.08 g/m*3 23.3 C 0 km/h
717 21-08-2010 23:36:02 22.9 C 11.44 g/m*3 22.9 C 0 km/h
718 21-08-2010 23:48:01 22.6 C 11.45 g/m*3 22.6 C 0 km/h
719 22-08-2010 00:00:01 22.3 C 11.26 g/m*3 22.3 C 0 km/h
720 22-08-2010 00:13:04 22.3 C 11.45 g/m*3 22.3 C 0 km/h
721 22-08-2010 00:25:04 22 C 11.45 g/m*3 22 C 0 km/h
722 22-08-2010 00:37:04 21.8 C 11.51 g/m*3 21.8 C 0 km/h
723 22-08-2010 00:49:04 21.6 C 11.57 g/m*3 21.6 C 0 km/h
724 22-08-2010 01:01:04 21.5 C 11.69 g/m*3 21.5 C 0 km/h
725 22-08-2010 01:13:04 21.2 C 11.49 g/m*3 21.2 C 0 km/h
Sensor: Nr:Datum:Temp:Abs-Feuchte:Windchill:Wind:
Aussen-T/F 726 22-08-2010 01:25:04 21 C 11.54 g/m*3 21 C 0 km/h
727 22-08-2010 01:37:04 20.9 C 11.84 g/m*3 20.9 C 0 km/h
728 22-08-2010 01:49:04 20.6 C 11.81 g/m*3 20.6 C 0 km/h
729 22-08-2010 02:01:05 20.5 C 11.74 g/m*3 20.5 C 0 km/h
730 22-08-2010 02:13:05 20.4 C 11.85 g/m*3 20.4 C 0 km/h
731 22-08-2010 02:25:05 20.1 C 11.82 g/m*3 20.1 C 0 km/h
732 22-08-2010 02:37:05 19.9 C 12.03 g/m*3 19.9 C 0 km/h
733 22-08-2010 02:49:05 19.8 C 11.96 g/m*3 19.8 C 0 km/h
734 22-08-2010 03:01:05 19.7 C 12.06 g/m*3 19.7 C 0 km/h
735 22-08-2010 03:13:05 19.7 C 12.23 g/m*3 19.7 C 0 km/h
736 22-08-2010 03:25:05 19.5 C 12.08 g/m*3 19.5 C 0 km/h
737 22-08-2010 03:37:05 19.3 C 11.94 g/m*3 19.3 C 0 km/h
738 22-08-2010 03:49:05 19.4 C 12.18 g/m*3 19.4 C 0 km/h
739 22-08-2010 04:01:05 19.3 C 12.11 g/m*3 19.3 C 0 km/h
740 22-08-2010 04:13:05 19.3 C 12.27 g/m*3 19.3 C 0 km/h
741 22-08-2010 04:25:05 19.2 C 12.04 g/m*3 19.2 C 0 km/h
742 22-08-2010 04:37:05 19.1 C 11.97 g/m*3 19.1 C 0 km/h
743 22-08-2010 04:49:05 18.9 C 12.15 g/m*3 18.9 C 0 km/h
744 22-08-2010 05:01:05 18.8 C 12.08 g/m*3 18.8 C 0 km/h
745 22-08-2010 05:13:05 18.6 C 11.94 g/m*3 18.6 C 0 km/h
746 22-08-2010 05:25:05 18.5 C 12.18 g/m*3 18.5 C 0 km/h
747 22-08-2010 05:37:05 18.5 C 12.18 g/m*3 18.5 C 0 km/h
748 22-08-2010 05:49:05 18.3 C 12.04 g/m*3 18.3 C 0 km/h
749 22-08-2010 06:01:06 18.1 C 12.05 g/m*3 18.1 C 0 km/h
750 22-08-2010 06:13:06 18 C 11.98 g/m*3 18 C 0 km/h
Sensor: Nr:Datum:Temp:Abs-Feuchte:Windchill:Wind:
Aussen-T/F 751 22-08-2010 06:25:06 18 C 11.98 g/m*3 18 C 0 km/h
752 22-08-2010 06:37:06 17.9 C 12.06 g/m*3 17.9 C 0 km/h
753 22-08-2010 06:49:06 18 C 11.98 g/m*3 18 C 0 km/h
754 22-08-2010 07:01:06 18 C 11.98 g/m*3 18 C 0 km/h
755 22-08-2010 07:13:06 18.1 C 12.05 g/m*3 18.1 C 0 km/h
756 22-08-2010 07:25:06 18.1 C 12.05 g/m*3 18.1 C 0 km/h
757 22-08-2010 07:37:06 18.5 C 12.34 g/m*3 18.5 C 0 km/h
758 22-08-2010 07:49:06 18.8 C 12.56 g/m*3 18.8 C 0 km/h
759 22-08-2010 08:01:06 18.9 C 12.47 g/m*3 18.9 C 0 km/h
760 22-08-2010 08:13:06 18.7 C 12.49 g/m*3 18.7 C 0 km/h
761 22-08-2010 08:25:06 18.8 C 12.72 g/m*3 18.8 C 0 km/h
762 22-08-2010 08:37:06 19.1 C 12.79 g/m*3 19.1 C 0 km/h
763 22-08-2010 08:49:01 19.3 C 12.61 g/m*3 19.3 C 0 km/h
764 22-08-2010 09:01:01 19.4 C 12.51 g/m*3 19.4 C 0 km/h
765 22-08-2010 09:13:01 20 C 12.62 g/m*3 20 C 0 km/h
766 22-08-2010 09:25:02 20.3 C 12.66 g/m*3 20.3 C 0 km/h
767 22-08-2010 09:37:01 20.6 C 12.71 g/m*3 20.6 C 0 km/h
768 22-08-2010 09:49:01 21.3 C 12.68 g/m*3 21.3 C 0 km/h
769 22-08-2010 10:01:01 21.6 C 12.71 g/m*3 21.6 C 0 km/h
770 22-08-2010 10:13:01 22.2 C 12.37 g/m*3 22.2 C 0 km/h
771 22-08-2010 10:25:02 23.7 C 13.05 g/m*3 23.7 C 0 km/h
772 22-08-2010 10:37:01 24.2 C 12.32 g/m*3 24.2 C 0 km/h
773 22-08-2010 10:49:03 23.8 C 12.91 g/m*3 23.8 C 0 km/h
774 22-08-2010 11:01:02 23.8 C 12.91 g/m*3 23.8 C 0 km/h
775 22-08-2010 11:13:02 24.1 C 12.91 g/m*3 24.1 C 0 km/h
Sensor: Nr:Datum:Temp:Abs-Feuchte:Windchill:Wind:
Aussen-T/F 776 22-08-2010 11:25:02 25 C 12.2 g/m*3 25 C 0 km/h
777 22-08-2010 11:37:02 25.5 C 13.26 g/m*3 25.5 C 0 km/h
778 22-08-2010 11:49:02 26 C 12.17 g/m*3 26 C 0 km/h
779 22-08-2010 12:01:01 26.7 C 12.15 g/m*3 26.7 C 0 km/h
780 22-08-2010 12:13:01 27.3 C 12.04 g/m*3 27.3 C 0 km/h
781 22-08-2010 12:25:02 27.9 C 11.63 g/m*3 27.9 C 0 km/h
782 22-08-2010 12:37:02 27.6 C 11.17 g/m*3 27.6 C 0 km/h
783 22-08-2010 12:49:02 27.8 C 11.3 g/m*3 27.8 C 0 km/h
784 22-08-2010 13:01:03 27.7 C 11.23 g/m*3 27.7 C 0 km/h
785 22-08-2010 13:13:03 28 C 11.15 g/m*3 28 C 0 km/h
786 22-08-2010 13:25:02 28.7 C 10.17 g/m*3 28.7 C 0 km/h
787 22-08-2010 13:37:02 28.9 C 10.28 g/m*3 28.9 C 0 km/h
788 22-08-2010 13:49:02 28.9 C 9.71 g/m*3 28.9 C 0 km/h
789 22-08-2010 14:01:02 29.6 C 10.68 g/m*3 29.6 C 0 km/h
790 22-08-2010 14:13:02 29.7 C 10.14 g/m*3 29.7 C 0 km/h
791 22-08-2010 14:25:01 29.6 C 10.39 g/m*3 29.6 C 0 km/h
792 22-08-2010 14:37:02 27.7 C 10.43 g/m*3 27.7 C 0 km/h
793 22-08-2010 14:49:02 27.1 C 10.61 g/m*3 27.1 C 0 km/h
794 22-08-2010 15:01:02 26 C 11.2 g/m*3 26 C 0 km/h
795 22-08-2010 15:13:03 25.9 C 11.62 g/m*3 25.9 C 0 km/h
796 22-08-2010 15:25:01 25.4 C 12.24 g/m*3 25.4 C 0 km/h
797 22-08-2010 15:37:02 25.1 C 13.2 g/m*3 25.1 C 0 km/h
798 22-08-2010 15:49:01 26.4 C 12.7 g/m*3 26.4 C 0 km/h
799 22-08-2010 16:01:02 27.7 C 11.77 g/m*3 27.7 C 0 km/h
800 22-08-2010 16:13:02 27.9 C 11.63 g/m*3 27.9 C 0 km/h
Sensor: Nr:Datum:Temp:Abs-Feuchte:Windchill:Wind:
Aussen-T/F 801 22-08-2010 16:25:02 27.9 C 12.17 g/m*3 27.9 C 0 km/h
802 22-08-2010 16:37:02 28 C 11.97 g/m*3 28 C 0 km/h
803 22-08-2010 16:49:01 27.5 C 11.91 g/m*3 27.5 C 0 km/h
804 22-08-2010 17:01:02 27 C 12.1 g/m*3 27 C 0 km/h
805 22-08-2010 17:13:02 26.8 C 12.22 g/m*3 26.8 C 0 km/h
806 22-08-2010 17:25:02 26.7 C 12.66 g/m*3 26.7 C 0 km/h
807 22-08-2010 17:37:02 26.4 C 11.45 g/m*3 26.4 C 0 km/h
808 22-08-2010 17:49:02 26.5 C 11.01 g/m*3 26.5 C 0 km/h
809 22-08-2010 18:01:01 26.4 C 10.7 g/m*3 26.4 C 0 km/h
810 22-08-2010 18:13:01 26.6 C 11.08 g/m*3 26.6 C 0 km/h
811 22-08-2010 18:25:02 26.5 C 12.02 g/m*3 26.5 C 0 km/h
812 22-08-2010 18:37:01 26 C 12.17 g/m*3 26 C 0 km/h
813 22-08-2010 18:49:02 25.9 C 12.59 g/m*3 25.9 C 0 km/h
814 22-08-2010 19:01:01 25.9 C 12.59 g/m*3 25.9 C 0 km/h
815 22-08-2010 19:13:01 26.2 C 12.31 g/m*3 26.2 C 0 km/h
816 22-08-2010 19:25:01 25.6 C 11.67 g/m*3 25.6 C 0 km/h
817 22-08-2010 19:37:02 25.3 C 10.53 g/m*3 25.3 C 0 km/h
818 22-08-2010 19:49:02 24.6 C 10.8 g/m*3 24.6 C 0 km/h
819 22-08-2010 20:01:02 24.6 C 10.8 g/m*3 24.6 C 0 km/h
820 22-08-2010 20:13:02 24.6 C 10.58 g/m*3 24.6 C 0 km/h
821 22-08-2010 20:25:02 24.5 C 10.52 g/m*3 24.5 C 0 km/h
822 22-08-2010 20:37:02 24.3 C 10.62 g/m*3 24.3 C 0 km/h
823 22-08-2010 20:49:02 24.1 C 10.72 g/m*3 24.1 C 0 km/h
824 22-08-2010 21:01:01 23.8 C 11.19 g/m*3 23.8 C 0 km/h
825 22-08-2010 21:13:01 23.2 C 11.23 g/m*3 23.2 C 0 km/h
Sensor: Nr:Datum:Temp:Abs-Feuchte:Windchill:Wind:
Aussen-T/F 826 22-08-2010 21:25:01 22.9 C 11.44 g/m*3 22.9 C 0 km/h
827 22-08-2010 21:37:02 22.9 C 11.85 g/m*3 22.9 C 0 km/h
828 22-08-2010 21:49:02 23 C 11.72 g/m*3 23 C 0 km/h
829 22-08-2010 22:01:02 23.2 C 11.64 g/m*3 23.2 C 0 km/h
830 22-08-2010 22:13:02 22.9 C 11.44 g/m*3 22.9 C 0 km/h
831 22-08-2010 22:25:02 22.6 C 11.65 g/m*3 22.6 C 0 km/h
832 22-08-2010 22:38:03 22.5 C 11.98 g/m*3 22.5 C 0 km/h
833 22-08-2010 22:50:03 22.1 C 11.71 g/m*3 22.1 C 0 km/h
834 22-08-2010 23:02:03 21.8 C 11.9 g/m*3 21.8 C 0 km/h
835 22-08-2010 23:14:03 21.6 C 11.95 g/m*3 21.6 C 0 km/h
836 22-08-2010 23:26:03 21.6 C 11.95 g/m*3 21.6 C 0 km/h
837 22-08-2010 23:38:03 21.4 C 11.81 g/m*3 21.4 C 0 km/h
838 22-08-2010 23:50:03 21.2 C 11.86 g/m*3 21.2 C 0 km/h
839 23-08-2010 00:02:03 21.1 C 11.98 g/m*3 21.1 C 0 km/h
840 23-08-2010 00:14:03 20.9 C 12.02 g/m*3 20.9 C 0 km/h
841 23-08-2010 00:26:03 20.9 C 12.02 g/m*3 20.9 C 0 km/h
842 23-08-2010 00:38:03 20.8 C 11.95 g/m*3 20.8 C 0 km/h
843 23-08-2010 00:50:03 20.7 C 12.06 g/m*3 20.7 C 0 km/h
844 23-08-2010 01:02:03 20.4 C 12.03 g/m*3 20.4 C 0 km/h
845 23-08-2010 01:14:03 20.3 C 12.31 g/m*3 20.3 C 0 km/h
846 23-08-2010 01:26:03 20.3 C 12.14 g/m*3 20.3 C 0 km/h
847 23-08-2010 01:38:03 20.4 C 12.21 g/m*3 20.4 C 0 km/h
848 23-08-2010 01:50:03 20.5 C 12.1 g/m*3 20.5 C 0 km/h
849 23-08-2010 02:02:03 20.4 C 12.21 g/m*3 20.4 C 0 km/h
850 23-08-2010 02:14:03 20.2 C 12.24 g/m*3 20.2 C 0 km/h
Sensor: Nr:Datum:Temp:Abs-Feuchte:Windchill:Wind:
Aussen-T/F 851 23-08-2010 02:26:03 19.8 C 12.3 g/m*3 19.8 C 0 km/h
852 23-08-2010 02:38:03 19.8 C 12.47 g/m*3 19.8 C 0 km/h
853 23-08-2010 02:50:04 19.9 C 12.37 g/m*3 19.9 C 0 km/h
854 23-08-2010 03:02:04 19.9 C 12.2 g/m*3 19.9 C 0 km/h
855 23-08-2010 03:14:04 19.9 C 12.37 g/m*3 19.9 C 0 km/h
856 23-08-2010 03:26:04 19.9 C 12.37 g/m*3 19.9 C 0 km/h
857 23-08-2010 03:38:04 19.7 C 12.23 g/m*3 19.7 C 0 km/h
858 23-08-2010 03:50:04 19.7 C 12.4 g/m*3 19.7 C 0 km/h
859 23-08-2010 04:02:04 19.6 C 12.32 g/m*3 19.6 C 0 km/h
860 23-08-2010 04:14:04 19.5 C 12.25 g/m*3 19.5 C 0 km/h
861 23-08-2010 04:26:04 19.5 C 12.42 g/m*3 19.5 C 0 km/h
862 23-08-2010 04:38:04 19.5 C 12.42 g/m*3 19.5 C 0 km/h
863 23-08-2010 04:50:04 19.5 C 12.25 g/m*3 19.5 C 0 km/h
864 23-08-2010 05:02:04 19.5 C 12.25 g/m*3 19.5 C 0 km/h
865 23-08-2010 05:14:04 19.4 C 12.18 g/m*3 19.4 C 0 km/h
866 23-08-2010 05:26:04 19.5 C 12.25 g/m*3 19.5 C 0 km/h
867 23-08-2010 05:38:04 19.4 C 12.18 g/m*3 19.4 C 0 km/h
868 23-08-2010 05:50:04 19.4 C 12.18 g/m*3 19.4 C 0 km/h
869 23-08-2010 06:02:04 19.5 C 12.42 g/m*3 19.5 C 0 km/h
870 23-08-2010 06:14:04 19.5 C 12.42 g/m*3 19.5 C 0 km/h
871 23-08-2010 06:26:04 19.4 C 12.35 g/m*3 19.4 C 0 km/h
872 23-08-2010 06:38:03 19.5 C 12.25 g/m*3 19.5 C 0 km/h
873 23-08-2010 06:50:02 19.5 C 12.25 g/m*3 19.5 C 0 km/h
874 23-08-2010 07:02:02 19.3 C 12.27 g/m*3 19.3 C 0 km/h
875 23-08-2010 07:14:03 19.5 C 12.59 g/m*3 19.5 C 0 km/h
Sensor: Nr:Datum:Temp:Abs-Feuchte:Windchill:Wind:
Aussen-T/F 876 23-08-2010 07:26:02 19.9 C 12.71 g/m*3 19.9 C 0 km/h
877 23-08-2010 07:38:02 20.4 C 12.38 g/m*3 20.4 C 0 km/h
878 23-08-2010 07:50:02 20.5 C 12.46 g/m*3 20.5 C 0 km/h
879 23-08-2010 08:02:02 20.6 C 12.71 g/m*3 20.6 C 0 km/h
880 23-08-2010 08:14:02 20.4 C 12.74 g/m*3 20.4 C 0 km/h
881 23-08-2010 08:26:01 19.5 C 13.26 g/m*3 19.5 C 0 km/h
882 23-08-2010 08:38:02 19.1 C 13.77 g/m*3 19.1 C 0 km/h
883 23-08-2010 08:50:02 19.1 C 13.93 g/m*3 19.1 C 0 km/h
884 23-08-2010 09:02:01 19.3 C 14.26 g/m*3 19.3 C 0 km/h
885 23-08-2010 09:14:01 19.4 C 14.52 g/m*3 19.4 C 0 km/h
886 23-08-2010 09:26:02 19.4 C 14.52 g/m*3 19.4 C 0 km/h
887 23-08-2010 09:38:01 19.4 C 14.52 g/m*3 19.4 C 0 km/h
888 23-08-2010 09:50:02 19.7 C 14.77 g/m*3 19.7 C 0 km/h
889 23-08-2010 10:02:01 20 C 14.86 g/m*3 20 C 0 km/h
890 23-08-2010 10:14:01 20.4 C 15.21 g/m*3 20.4 C 0 km/h
891 23-08-2010 10:26:01 20.7 C 15.12 g/m*3 20.7 C 0 km/h
892 23-08-2010 10:38:02 20.9 C 15.12 g/m*3 20.9 C 0 km/h
893 23-08-2010 10:50:02 21.2 C 15.01 g/m*3 21.2 C 0 km/h
894 23-08-2010 11:02:02 21.4 C 15 g/m*3 21.4 C 0 km/h
895 23-08-2010 11:14:02 21.7 C 14.69 g/m*3 21.7 C 0 km/h
896 23-08-2010 11:26:02 22.5 C 14.58 g/m*3 22.5 C 0 km/h
897 23-08-2010 11:38:02 22.8 C 14.63 g/m*3 22.8 C 0 km/h
898 23-08-2010 11:50:02 22.9 C 14.92 g/m*3 22.9 C 0 km/h
899 23-08-2010 12:02:02 22.5 C 14.78 g/m*3 22.5 C 0 km/h
900 23-08-2010 12:14:02 22.7 C 15.36 g/m*3 22.7 C 0 km/h
Sensor: Nr:Datum:Temp:Abs-Feuchte:Windchill:Wind:
Aussen-T/F 901 23-08-2010 12:26:02 23.3 C 16.1 g/m*3 23.3 C 0 km/h
902 23-08-2010 12:38:02 23.4 C 15.98 g/m*3 23.4 C 0 km/h
903 23-08-2010 12:50:01 23.5 C 15.86 g/m*3 23.5 C 0 km/h
904 23-08-2010 13:02:02 24.2 C 15.18 g/m*3 24.2 C 0 km/h
905 23-08-2010 13:14:02 24.9 C 14.42 g/m*3 24.9 C 0 km/h
906 23-08-2010 13:26:01 24 C 13.49 g/m*3 24 C 0 km/h
907 23-08-2010 13:38:01 23.1 C 13.85 g/m*3 23.1 C 0 km/h
908 23-08-2010 13:50:01 22.2 C 14.72 g/m*3 22.2 C 0 km/h
909 23-08-2010 14:02:01 21.9 C 14.86 g/m*3 21.9 C 0 km/h
910 23-08-2010 14:14:01 23.3 C 14.84 g/m*3 23.3 C 0 km/h
911 23-08-2010 14:26:01 24.8 C 14.11 g/m*3 24.8 C 0 km/h
912 23-08-2010 14:38:01 25.8 C 13.72 g/m*3 25.8 C 0 km/h
913 23-08-2010 14:50:01 25.9 C 13.32 g/m*3 25.9 C 0 km/h
914 23-08-2010 15:02:01 25.9 C 13.07 g/m*3 25.9 C 0 km/h
915 23-08-2010 15:14:01 25.9 C 12.59 g/m*3 25.9 C 0 km/h
916 23-08-2010 15:26:02 26.3 C 12.13 g/m*3 26.3 C 0 km/h
917 23-08-2010 15:38:01 25.9 C 11.86 g/m*3 25.9 C 0 km/h
918 23-08-2010 15:50:03 25.3 C 11.94 g/m*3 25.3 C 0 km/h
919 23-08-2010 16:02:02 25.9 C 11.38 g/m*3 25.9 C 0 km/h
920 23-08-2010 16:14:02 26.7 C 11.14 g/m*3 26.7 C 0 km/h
921 23-08-2010 16:26:02 26.6 C 11.33 g/m*3 26.6 C 0 km/h
922 23-08-2010 16:38:02 25.5 C 11.6 g/m*3 25.5 C 0 km/h
923 23-08-2010 16:50:02 25 C 11.51 g/m*3 25 C 0 km/h
924 23-08-2010 17:02:01 25.2 C 10.94 g/m*3 25.2 C 0 km/h
925 23-08-2010 17:14:01 24.6 C 11.25 g/m*3 24.6 C 0 km/h
Sensor: Nr:Datum:Temp:Abs-Feuchte:Windchill:Wind:
Aussen-T/F 926 23-08-2010 17:26:02 23.3 C 11.92 g/m*3 23.3 C 0 km/h
927 23-08-2010 17:38:02 22.7 C 12.53 g/m*3 22.7 C 0 km/h
928 23-08-2010 17:50:02 22.1 C 12.88 g/m*3 22.1 C 0 km/h
929 23-08-2010 18:02:01 21.9 C 13.31 g/m*3 21.9 C 0 km/h
930 23-08-2010 18:14:01 21.6 C 13.47 g/m*3 21.6 C 0 km/h
931 23-08-2010 18:26:01 21 C 13.74 g/m*3 21 C 0 km/h
932 23-08-2010 18:38:02 20.7 C 14.22 g/m*3 20.7 C 0 km/h
933 23-08-2010 18:50:02 20.4 C 13.98 g/m*3 20.4 C 0 km/h
934 23-08-2010 19:02:02 20.8 C 14.3 g/m*3 20.8 C 0 km/h
935 23-08-2010 19:14:02 20.9 C 13.84 g/m*3 20.9 C 0 km/h
936 23-08-2010 19:26:02 20.8 C 13.76 g/m*3 20.8 C 0 km/h
937 23-08-2010 19:38:02 20.7 C 13.5 g/m*3 20.7 C 0 km/h
938 23-08-2010 19:50:02 20.6 C 13.42 g/m*3 20.6 C 0 km/h
939 23-08-2010 20:02:02 20.5 C 13.17 g/m*3 20.5 C 0 km/h
940 23-08-2010 20:14:02 20.4 C 13.09 g/m*3 20.4 C 0 km/h
941 23-08-2010 20:26:02 20.4 C 12.91 g/m*3 20.4 C 0 km/h
942 23-08-2010 20:38:02 20.3 C 12.84 g/m*3 20.3 C 0 km/h
943 23-08-2010 20:50:02 20.1 C 12.69 g/m*3 20.1 C 0 km/h
944 23-08-2010 21:02:02 20 C 12.62 g/m*3 20 C 0 km/h
945 23-08-2010 21:14:02 19.8 C 12.64 g/m*3 19.8 C 0 km/h
946 23-08-2010 21:26:02 19.7 C 12.74 g/m*3 19.7 C 0 km/h
947 23-08-2010 21:38:02 19.7 C 12.57 g/m*3 19.7 C 0 km/h
948 23-08-2010 21:50:02 19.8 C 12.47 g/m*3 19.8 C 0 km/h
949 23-08-2010 22:03:03 19.7 C 12.4 g/m*3 19.7 C 0 km/h
950 23-08-2010 22:15:03 19.6 C 12.32 g/m*3 19.6 C 0 km/h
Sensor: Nr:Datum:Temp:Abs-Feuchte:Windchill:Wind:
Aussen-T/F 951 23-08-2010 22:27:03 19.6 C 12.15 g/m*3 19.6 C 0 km/h
952 23-08-2010 22:39:03 19.5 C 12.25 g/m*3 19.5 C 0 km/h
953 23-08-2010 22:51:03 19.5 C 12.08 g/m*3 19.5 C 0 km/h
954 23-08-2010 23:03:03 19.4 C 12.01 g/m*3 19.4 C 0 km/h
955 23-08-2010 23:15:03 19.3 C 11.94 g/m*3 19.3 C 0 km/h
956 23-08-2010 23:27:03 19.3 C 11.94 g/m*3 19.3 C 0 km/h
957 23-08-2010 23:39:03 19.2 C 11.87 g/m*3 19.2 C 0 km/h
958 23-08-2010 23:51:03 19.3 C 11.94 g/m*3 19.3 C 0 km/h
959 24-08-2010 00:03:03 19.2 C 12.04 g/m*3 19.2 C 0 km/h
960 24-08-2010 00:15:03 19.2 C 12.04 g/m*3 19.2 C 0 km/h
961 24-08-2010 00:27:03 19.1 C 11.97 g/m*3 19.1 C 0 km/h
962 24-08-2010 00:39:04 19.2 C 12.2 g/m*3 19.2 C 0 km/h
963 24-08-2010 00:51:04 19.2 C 12.2 g/m*3 19.2 C 0 km/h
964 24-08-2010 01:03:04 19.3 C 12.27 g/m*3 19.3 C 0 km/h
965 24-08-2010 01:15:04 19.2 C 12.37 g/m*3 19.2 C 0 km/h
966 24-08-2010 01:27:04 19.1 C 12.46 g/m*3 19.1 C 0 km/h
967 24-08-2010 01:39:04 19.2 C 12.53 g/m*3 19.2 C 0 km/h
968 24-08-2010 01:51:04 19.2 C 12.53 g/m*3 19.2 C 0 km/h
969 24-08-2010 02:03:04 19.3 C 12.44 g/m*3 19.3 C 0 km/h
970 24-08-2010 02:15:04 19.6 C 12.32 g/m*3 19.6 C 0 km/h
971 24-08-2010 02:27:04 19.9 C 12.37 g/m*3 19.9 C 0 km/h
972 24-08-2010 02:39:04 20 C 11.92 g/m*3 20 C 0 km/h
973 24-08-2010 02:51:04 19.6 C 12.32 g/m*3 19.6 C 0 km/h
974 24-08-2010 03:03:04 19 C 12.22 g/m*3 19 C 0 km/h
975 24-08-2010 03:15:04 18.7 C 12.33 g/m*3 18.7 C 0 km/h
Sensor: Nr:Datum:Temp:Abs-Feuchte:Windchill:Wind:
Aussen-T/F 976 24-08-2010 03:27:04 18.4 C 11.64 g/m*3 18.4 C 0 km/h
977 24-08-2010 03:39:04 17.9 C 11.76 g/m*3 17.9 C 0 km/h
978 24-08-2010 03:51:04 17.7 C 11.32 g/m*3 17.7 C 0 km/h
979 24-08-2010 04:03:04 18.1 C 9.73 g/m*3 18.1 C 0 km/h
980 24-08-2010 04:15:04 18.2 C 9.64 g/m*3 18.2 C 0 km/h
981 24-08-2010 04:27:04 18.1 C 9.43 g/m*3 18.1 C 0 km/h
982 24-08-2010 04:39:04 18 C 9.37 g/m*3 18 C 0 km/h
983 24-08-2010 04:51:05 17.9 C 9.47 g/m*3 17.9 C 0 km/h
984 24-08-2010 05:03:05 17.4 C 9.48 g/m*3 17.4 C 0 km/h
985 24-08-2010 05:15:05 17.3 C 9.58 g/m*3 17.3 C 0 km/h
986 24-08-2010 05:27:05 17.3 C 9.58 g/m*3 17.3 C 0 km/h
987 24-08-2010 05:39:05 17.2 C 9.37 g/m*3 17.2 C 0 km/h
988 24-08-2010 05:51:05 17 C 9.55 g/m*3 17 C 0 km/h
989 24-08-2010 06:03:05 17.1 C 9.46 g/m*3 17.1 C 0 km/h
990 24-08-2010 06:15:05 17.1 C 9.32 g/m*3 17.1 C 0 km/h
991 24-08-2010 06:27:05 17 C 9.55 g/m*3 17 C 0 km/h
992 24-08-2010 06:39:05 17.4 C 9.63 g/m*3 17.4 C 0 km/h
993 24-08-2010 06:51:05 16.8 C 9.44 g/m*3 16.8 C 0 km/h
994 24-08-2010 07:03:05 16.8 C 9.58 g/m*3 16.8 C 0 km/h
995 24-08-2010 07:15:02 16.7 C 9.38 g/m*3 16.7 C 0 km/h
996 24-08-2010 07:27:02 16.4 C 9.21 g/m*3 16.4 C 0 km/h
997 24-08-2010 07:39:03 16.2 C 8.96 g/m*3 16.2 C 0 km/h
998 24-08-2010 07:51:02 16.1 C 9.05 g/m*3 16.1 C 0 km/h
999 24-08-2010 08:03:02 16 C 8.99 g/m*3 16 C 0 km/h
1000 24-08-2010 08:15:02 16.1 C 8.64 g/m*3 16.1 C 0 km/h
Sensor: Nr:Datum:Temp:Abs-Feuchte:Windchill:Wind:
Aussen-T/F 1001 24-08-2010 08:27:02 16.2 C 8.41 g/m*3 16.2 C 0 km/h
1002 24-08-2010 08:39:02 16.2 C 8.27 g/m*3 16.2 C 0 km/h
1003 24-08-2010 08:51:02 16.3 C 7.91 g/m*3 16.3 C 0 km/h
1004 24-08-2010 09:03:02 16.4 C 7.82 g/m*3 16.4 C 0 km/h
1005 24-08-2010 09:15:02 16.5 C 7.44 g/m*3 16.5 C 0 km/h
1006 24-08-2010 09:27:02 16.7 C 7.11 g/m*3 16.7 C 0 km/h
1007 24-08-2010 09:39:01 17 C 6.95 g/m*3 17 C 0 km/h
1008 24-08-2010 09:51:02 17.2 C 7.18 g/m*3 17.2 C 0 km/h
1009 24-08-2010 10:03:01 17.4 C 7.11 g/m*3 17.4 C 0 km/h
1010 24-08-2010 10:15:02 17.7 C 7.39 g/m*3 17.7 C 0 km/h
1011 24-08-2010 10:27:02 17.8 C 7.29 g/m*3 17.8 C 0 km/h
1012 24-08-2010 10:39:02 18 C 7.07 g/m*3 18 C 0 km/h
1013 24-08-2010 10:51:02 18.5 C 7.28 g/m*3 18.5 C 0 km/h
1014 24-08-2010 11:03:03 18.7 C 7.36 g/m*3 18.7 C 0 km/h
1015 24-08-2010 11:15:02 18.9 C 6.97 g/m*3 18.9 C 0 km/h
1016 24-08-2010 11:27:02 19.1 C 6.72 g/m*3 19.1 C 0 km/h
1017 24-08-2010 11:39:02 19.4 C 6.51 g/m*3 19.4 C 0 km/h
1018 24-08-2010 11:51:01 19.3 C 6.8 g/m*3 19.3 C 0 km/h
1019 24-08-2010 12:03:02 19.1 C 6.56 g/m*3 19.1 C 0 km/h
1020 24-08-2010 12:15:01 19.8 C 6.66 g/m*3 19.8 C 0 km/h
1021 24-08-2010 12:27:01 20.1 C 6.26 g/m*3 20.1 C 0 km/h
1022 24-08-2010 12:39:02 20 C 6.05 g/m*3 20 C 0 km/h
1023 24-08-2010 12:51:01 21.2 C 6.12 g/m*3 21.2 C 0 km/h
1024 24-08-2010 13:03:02 20.3 C 6.16 g/m*3 20.3 C 0 km/h
1025 24-08-2010 13:15:01 20.5 C 6.23 g/m*3 20.5 C 0 km/h
Sensor: Nr:Datum:Temp:Abs-Feuchte:Windchill:Wind:
Aussen-T/F 1026 24-08-2010 13:27:01 21.5 C 5.85 g/m*3 21.5 C 0 km/h
1027 24-08-2010 13:39:02 21.7 C 5.72 g/m*3 21.7 C 0 km/h
1028 24-08-2010 13:51:01 21 C 5.68 g/m*3 21 C 0 km/h
1029 24-08-2010 14:03:02 20.8 C 5.79 g/m*3 20.8 C 0 km/h
1030 24-08-2010 14:15:02 20.9 C 5.83 g/m*3 20.9 C 0 km/h
1031 24-08-2010 14:27:02 21.7 C 5.34 g/m*3 21.7 C 0 km/h
1032 24-08-2010 14:39:02 22.2 C 5.3 g/m*3 22.2 C 0 km/h
1033 24-08-2010 14:51:02 21.7 C 5.15 g/m*3 21.7 C 0 km/h
1034 24-08-2010 15:03:02 21.2 C 5.74 g/m*3 21.2 C 0 km/h
1035 24-08-2010 15:15:02 21.2 C 5.19 g/m*3 21.2 C 0 km/h
1036 24-08-2010 15:27:02 21.6 C 4.93 g/m*3 21.6 C 0 km/h
1037 24-08-2010 15:39:01 22.1 C 5.08 g/m*3 22.1 C 0 km/h
1038 24-08-2010 15:51:02 23 C 4.52 g/m*3 23 C 0 km/h
1039 24-08-2010 16:03:01 23.2 C 4.57 g/m*3 23.2 C 0 km/h
1040 24-08-2010 16:15:02 23.2 C 4.37 g/m*3 23.2 C 0 km/h
1041 24-08-2010 16:27:03 23 C 4.73 g/m*3 23 C 0 km/h
1042 24-08-2010 16:39:01 23.8 C 4.73 g/m*3 23.8 C 0 km/h
1043 24-08-2010 16:51:02 22 C 4.66 g/m*3 22 C 0 km/h
1044 24-08-2010 17:03:02 23 C 4.52 g/m*3 23 C 0 km/h
1045 24-08-2010 17:15:02 23.4 C 4.21 g/m*3 23.4 C 0 km/h
1046 24-08-2010 17:27:02 23.6 C 4.68 g/m*3 23.6 C 0 km/h
1047 24-08-2010 17:39:03 22.9 C 4.9 g/m*3 22.9 C 0 km/h
1048 24-08-2010 17:51:02 23.2 C 5.2 g/m*3 23.2 C 0 km/h
1049 24-08-2010 18:03:02 23.8 C 4.95 g/m*3 23.8 C 0 km/h
1050 24-08-2010 18:15:02 22.8 C 5.08 g/m*3 22.8 C 0 km/h
Sensor: Nr:Datum:Temp:Abs-Feuchte:Windchill:Wind:
Aussen-T/F 1051 24-08-2010 18:27:02 22.9 C 5.11 g/m*3 22.9 C 0 km/h
1052 24-08-2010 18:39:02 22.8 C 5.28 g/m*3 22.8 C 0 km/h
1053 24-08-2010 18:51:02 22.3 C 5.13 g/m*3 22.3 C 0 km/h
1054 24-08-2010 19:03:03 22.5 C 5.19 g/m*3 22.5 C 0 km/h
1055 24-08-2010 19:15:02 21.7 C 5.15 g/m*3 21.7 C 0 km/h
1056 24-08-2010 19:27:02 22.1 C 5.08 g/m*3 22.1 C 0 km/h
1057 24-08-2010 19:39:02 21.3 C 5.03 g/m*3 21.3 C 0 km/h
1058 24-08-2010 19:51:01 20.8 C 5.43 g/m*3 20.8 C 0 km/h
1059 24-08-2010 20:03:02 20.4 C 5.48 g/m*3 20.4 C 0 km/h
1060 24-08-2010 20:15:01 20.3 C 5.8 g/m*3 20.3 C 0 km/h
1061 24-08-2010 20:27:01 19.7 C 5.94 g/m*3 19.7 C 0 km/h
1062 24-08-2010 20:39:02 19.4 C 5.84 g/m*3 19.4 C 0 km/h
1063 24-08-2010 20:51:01 19 C 5.87 g/m*3 19 C 0 km/h
1064 24-08-2010 21:03:02 18.7 C 5.92 g/m*3 18.7 C 0 km/h
1065 24-08-2010 21:15:02 18.4 C 6.13 g/m*3 18.4 C 0 km/h
1066 24-08-2010 21:27:02 18.2 C 6.22 g/m*3 18.2 C 0 km/h
1067 24-08-2010 21:39:02 18.1 C 6.18 g/m*3 18.1 C 0 km/h
1068 24-08-2010 21:51:01 18 C 6.14 g/m*3 18 C 0 km/h
1069 24-08-2010 22:04:03 17.7 C 6.19 g/m*3 17.7 C 0 km/h
1070 24-08-2010 22:16:03 17.6 C 6.15 g/m*3 17.6 C 0 km/h
1071 24-08-2010 22:28:03 17.5 C 6.26 g/m*3 17.5 C 0 km/h
1072 24-08-2010 22:40:03 17.1 C 6.4 g/m*3 17.1 C 0 km/h
1073 24-08-2010 22:52:03 17.1 C 6.4 g/m*3 17.1 C 0 km/h
1074 24-08-2010 23:04:03 17 C 6.22 g/m*3 17 C 0 km/h
1075 24-08-2010 23:16:03 16.8 C 6.43 g/m*3 16.8 C 0 km/h
Sensor: Nr:Datum:Temp:Abs-Feuchte:Windchill:Wind:
Aussen-T/F 1076 24-08-2010 23:28:03 16.8 C 6.43 g/m*3 16.8 C 0 km/h
1077 24-08-2010 23:40:03 16.7 C 6.54 g/m*3 16.7 C 0 km/h
1078 24-08-2010 23:52:03 16.6 C 6.5 g/m*3 16.6 C 0 km/h
1079 25-08-2010 00:04:03 16.4 C 6.42 g/m*3 16.4 C 0 km/h
1080 25-08-2010 00:16:03 16.4 C 6.56 g/m*3 16.4 C 0 km/h
1081 25-08-2010 00:28:03 16.2 C 6.48 g/m*3 16.2 C 0 km/h
1082 25-08-2010 00:40:04 16 C 6.54 g/m*3 16 C 0 km/h
1083 25-08-2010 00:52:04 15.8 C 6.73 g/m*3 15.8 C 0 km/h
1084 25-08-2010 01:04:04 15.8 C 6.73 g/m*3 15.8 C 0 km/h
1085 25-08-2010 01:16:04 15.6 C 6.78 g/m*3 15.6 C 0 km/h
1086 25-08-2010 01:28:04 15.5 C 6.87 g/m*3 15.5 C 0 km/h
1087 25-08-2010 01:40:04 15.4 C 6.83 g/m*3 15.4 C 0 km/h
1088 25-08-2010 01:52:04 15.3 C 6.79 g/m*3 15.3 C 0 km/h
1089 25-08-2010 02:04:04 15.1 C 6.97 g/m*3 15.1 C 0 km/h
1090 25-08-2010 02:16:04 14.8 C 7.09 g/m*3 14.8 C 0 km/h
1091 25-08-2010 02:28:04 14.6 C 7.13 g/m*3 14.6 C 0 km/h
1092 25-08-2010 02:40:04 14.5 C 7.21 g/m*3 14.5 C 0 km/h
1093 25-08-2010 02:52:04 14.3 C 7.13 g/m*3 14.3 C 0 km/h
1094 25-08-2010 03:04:04 14.2 C 7.2 g/m*3 14.2 C 0 km/h
1095 25-08-2010 03:16:04 13.9 C 7.55 g/m*3 13.9 C 0 km/h
1096 25-08-2010 03:28:04 13.7 C 7.58 g/m*3 13.7 C 0 km/h
1097 25-08-2010 03:40:04 13.6 C 7.77 g/m*3 13.6 C 0 km/h
1098 25-08-2010 03:52:04 13.4 C 7.67 g/m*3 13.4 C 0 km/h
1099 25-08-2010 04:04:04 13.4 C 7.79 g/m*3 13.4 C 0 km/h
1100 25-08-2010 04:16:04 13.4 C 7.79 g/m*3 13.4 C 0 km/h
Sensor: Nr:Datum:Temp:Abs-Feuchte:Windchill:Wind:
Aussen-T/F 1101 25-08-2010 04:28:04 13.4 C 7.67 g/m*3 13.4 C 0 km/h
1102 25-08-2010 04:40:04 13.4 C 7.67 g/m*3 13.4 C 0 km/h
1103 25-08-2010 04:52:05 13.4 C 7.56 g/m*3 13.4 C 0 km/h
1104 25-08-2010 05:04:05 13.6 C 7.53 g/m*3 13.6 C 0 km/h
1105 25-08-2010 05:16:05 13.6 C 7.41 g/m*3 13.6 C 0 km/h
1106 25-08-2010 05:28:05 13.4 C 7.44 g/m*3 13.4 C 0 km/h
1107 25-08-2010 05:40:05 13.2 C 7.58 g/m*3 13.2 C 0 km/h
1108 25-08-2010 05:52:05 13.1 C 7.65 g/m*3 13.1 C 0 km/h
1109 25-08-2010 06:04:05 13 C 7.6 g/m*3 13 C 0 km/h
1110 25-08-2010 06:16:05 13.1 C 7.65 g/m*3 13.1 C 0 km/h
1111 25-08-2010 06:28:05 12.9 C 7.78 g/m*3 12.9 C 0 km/h
1112 25-08-2010 06:40:05 12.9 C 7.78 g/m*3 12.9 C 0 km/h
1113 25-08-2010 06:52:05 12.8 C 7.73 g/m*3 12.8 C 0 km/h
1114 25-08-2010 07:04:02 12.7 C 7.79 g/m*3 12.7 C 0 km/h
1115 25-08-2010 07:16:03 12.8 C 7.84 g/m*3 12.8 C 0 km/h
1116 25-08-2010 07:28:03 12.8 C 7.84 g/m*3 12.8 C 0 km/h
1117 25-08-2010 07:40:02 12.7 C 7.79 g/m*3 12.7 C 0 km/h
1118 25-08-2010 07:52:02 12.8 C 7.95 g/m*3 12.8 C 0 km/h
1119 25-08-2010 08:04:01 13.1 C 7.87 g/m*3 13.1 C 0 km/h
1120 25-08-2010 08:16:01 13.4 C 7.9 g/m*3 13.4 C 0 km/h
1121 25-08-2010 08:28:01 13.5 C 7.84 g/m*3 13.5 C 0 km/h
1122 25-08-2010 08:40:01 13.8 C 7.86 g/m*3 13.8 C 0 km/h
1123 25-08-2010 08:52:03 13.9 C 7.79 g/m*3 13.9 C 0 km/h
1124 25-08-2010 09:04:02 14.2 C 7.82 g/m*3 14.2 C 0 km/h
1125 25-08-2010 09:16:02 14.7 C 8.06 g/m*3 14.7 C 0 km/h
Sensor: Nr:Datum:Temp:Abs-Feuchte:Windchill:Wind:
Aussen-T/F 1126 25-08-2010 09:28:03 14.9 C 7.9 g/m*3 14.9 C 0 km/h
1127 25-08-2010 09:40:02 15.2 C 7.79 g/m*3 15.2 C 0 km/h
1128 25-08-2010 09:52:02 15.6 C 7.98 g/m*3 15.6 C 0 km/h
1129 25-08-2010 10:04:01 16.1 C 7.81 g/m*3 16.1 C 0 km/h
1130 25-08-2010 10:16:02 16.3 C 7.77 g/m*3 16.3 C 0 km/h
1131 25-08-2010 10:28:02 16.3 C 7.77 g/m*3 16.3 C 0 km/h
1132 25-08-2010 10:40:02 16.3 C 7.77 g/m*3 16.3 C 0 km/h
1133 25-08-2010 10:52:02 16.5 C 7.86 g/m*3 16.5 C 0 km/h
1134 25-08-2010 11:04:02 17.1 C 7.71 g/m*3 17.1 C 0 km/h
1135 25-08-2010 11:16:01 17.4 C 7.85 g/m*3 17.4 C 0 km/h
1136 25-08-2010 11:28:01 17.7 C 7.85 g/m*3 17.7 C 0 km/h
1137 25-08-2010 11:40:02 18.1 C 7.88 g/m*3 18.1 C 0 km/h
1138 25-08-2010 11:52:02 19.2 C 7.75 g/m*3 19.2 C 0 km/h
1139 25-08-2010 12:04:02 19.7 C 7.47 g/m*3 19.7 C 0 km/h
1140 25-08-2010 12:16:01 19.9 C 7.39 g/m*3 19.9 C 0 km/h
1141 25-08-2010 12:28:01 20.4 C 7.43 g/m*3 20.4 C 0 km/h
1142 25-08-2010 12:40:02 20 C 6.91 g/m*3 20 C 0 km/h
1143 25-08-2010 12:52:02 20 C 6.74 g/m*3 20 C 0 km/h
1144 25-08-2010 13:04:02 20.4 C 6.9 g/m*3 20.4 C 0 km/h
1145 25-08-2010 13:16:02 20.7 C 6.84 g/m*3 20.7 C 0 km/h
1146 25-08-2010 13:28:02 20.9 C 6.56 g/m*3 20.9 C 0 km/h
1147 25-08-2010 13:40:02 20.8 C 6.52 g/m*3 20.8 C 0 km/h
1148 25-08-2010 13:52:01 21.3 C 6.52 g/m*3 21.3 C 0 km/h
1149 25-08-2010 14:04:02 21.2 C 6.49 g/m*3 21.2 C 0 km/h
1150 25-08-2010 14:16:01 21.2 C 6.3 g/m*3 21.2 C 0 km/h
Sensor: Nr:Datum:Temp:Abs-Feuchte:Windchill:Wind:
Aussen-T/F 1151 25-08-2010 14:28:01 21.7 C 6.49 g/m*3 21.7 C 0 km/h
1152 25-08-2010 14:40:01 21.3 C 6.52 g/m*3 21.3 C 0 km/h
1153 25-08-2010 14:52:01 21.9 C 6.37 g/m*3 21.9 C 0 km/h
1154 25-08-2010 15:04:02 22.5 C 6.39 g/m*3 22.5 C 0 km/h
1155 25-08-2010 15:16:01 23.1 C 6.2 g/m*3 23.1 C 0 km/h
1156 25-08-2010 15:28:01 23.9 C 6.06 g/m*3 23.9 C 0 km/h
1157 25-08-2010 15:40:01 24.1 C 5.69 g/m*3 24.1 C 0 km/h
1158 25-08-2010 15:52:01 24.1 C 6.13 g/m*3 24.1 C 0 km/h
1159 25-08-2010 16:04:01 24.3 C 5.53 g/m*3 24.3 C 0 km/h
1160 25-08-2010 16:16:02 24.3 C 5.53 g/m*3 24.3 C 0 km/h
1161 25-08-2010 16:28:02 25.3 C 5.62 g/m*3 25.3 C 0 km/h
1162 25-08-2010 16:40:01 24.7 C 5.66 g/m*3 24.7 C 0 km/h
1163 25-08-2010 16:52:01 23.7 C 5.99 g/m*3 23.7 C 0 km/h
1164 25-08-2010 17:04:02 23.4 C 6.73 g/m*3 23.4 C 0 km/h
1165 25-08-2010 17:16:01 23.3 C 6.48 g/m*3 23.3 C 0 km/h
1166 25-08-2010 17:28:01 23.1 C 6.41 g/m*3 23.1 C 0 km/h
1167 25-08-2010 17:40:01 23.2 C 6.86 g/m*3 23.2 C 0 km/h
1168 25-08-2010 17:52:01 23 C 6.78 g/m*3 23 C 0 km/h
1169 25-08-2010 18:04:02 22.2 C 6.87 g/m*3 22.2 C 0 km/h
1170 25-08-2010 18:16:02 22 C 6.79 g/m*3 22 C 0 km/h
1171 25-08-2010 18:28:02 22 C 6.79 g/m*3 22 C 0 km/h
1172 25-08-2010 18:40:01 21.8 C 7.48 g/m*3 21.8 C 0 km/h
1173 25-08-2010 18:52:01 21.5 C 7.54 g/m*3 21.5 C 0 km/h
1174 25-08-2010 19:04:01 20.8 C 7.97 g/m*3 20.8 C 0 km/h
1175 25-08-2010 19:16:02 20.1 C 8 g/m*3 20.1 C 0 km/h
Sensor: Nr:Datum:Temp:Abs-Feuchte:Windchill:Wind:
Aussen-T/F 1176 25-08-2010 19:28:02 20.2 C 7.87 g/m*3 20.2 C 0 km/h
1177 25-08-2010 19:40:01 20 C 7.95 g/m*3 20 C 0 km/h
1178 25-08-2010 19:52:02 20 C 7.78 g/m*3 20 C 0 km/h
1179 25-08-2010 20:04:01 19.7 C 8.15 g/m*3 19.7 C 0 km/h
1180 25-08-2010 20:16:02 19.4 C 8.18 g/m*3 19.4 C 0 km/h
1181 25-08-2010 20:28:02 19 C 8.15 g/m*3 19 C 0 km/h
1182 25-08-2010 20:40:01 18.8 C 8.21 g/m*3 18.8 C 0 km/h
1183 25-08-2010 20:52:02 18.3 C 8.44 g/m*3 18.3 C 0 km/h
1184 25-08-2010 21:04:02 18.1 C 8.19 g/m*3 18.1 C 0 km/h
1185 25-08-2010 21:16:02 18.1 C 8.34 g/m*3 18.1 C 0 km/h
1186 25-08-2010 21:28:02 18.1 C 8.34 g/m*3 18.1 C 0 km/h
1187 25-08-2010 21:40:02 18.2 C 8.39 g/m*3 18.2 C 0 km/h
1188 25-08-2010 21:52:02 18.1 C 8.5 g/m*3 18.1 C 0 km/h
1189 25-08-2010 22:04:01 17.9 C 8.55 g/m*3 17.9 C 0 km/h
1190 25-08-2010 22:17:04 17.7 C 8.45 g/m*3 17.7 C 0 km/h
1191 25-08-2010 22:29:04 17.5 C 8.35 g/m*3 17.5 C 0 km/h
1192 25-08-2010 22:41:04 17.4 C 8.6 g/m*3 17.4 C 0 km/h
1193 25-08-2010 22:53:04 17.3 C 8.54 g/m*3 17.3 C 0 km/h
1194 25-08-2010 23:05:04 17.2 C 8.64 g/m*3 17.2 C 0 km/h
1195 25-08-2010 23:17:04 17.4 C 8.74 g/m*3 17.4 C 0 km/h
1196 25-08-2010 23:29:04 17.4 C 8.74 g/m*3 17.4 C 0 km/h
1197 25-08-2010 23:41:04 17.3 C 8.99 g/m*3 17.3 C 0 km/h
1198 25-08-2010 23:53:04 17.2 C 8.93 g/m*3 17.2 C 0 km/h
1199 26-08-2010 00:05:04 17.1 C 9.03 g/m*3 17.1 C 0 km/h
1200 26-08-2010 00:17:04 17.2 C 9.08 g/m*3 17.2 C 0 km/h
Sensor: Nr:Datum:Temp:Abs-Feuchte:Windchill:Wind:
Aussen-T/F 1201 26-08-2010 00:29:04 17.3 C 9.13 g/m*3 17.3 C 0 km/h
1202 26-08-2010 00:41:04 17.4 C 9.04 g/m*3 17.4 C 0 km/h
1203 26-08-2010 00:53:04 17.4 C 9.04 g/m*3 17.4 C 0 km/h
1204 26-08-2010 01:05:05 17.5 C 9.24 g/m*3 17.5 C 0 km/h
1205 26-08-2010 01:17:05 17.5 C 9.09 g/m*3 17.5 C 0 km/h
1206 26-08-2010 01:29:05 17.5 C 9.09 g/m*3 17.5 C 0 km/h
1207 26-08-2010 01:41:05 17.5 C 9.09 g/m*3 17.5 C 0 km/h
1208 26-08-2010 01:53:05 17.4 C 9.04 g/m*3 17.4 C 0 km/h
1209 26-08-2010 02:05:05 16.9 C 9.78 g/m*3 16.9 C 0 km/h
1210 26-08-2010 02:17:05 17.1 C 10.19 g/m*3 17.1 C 0 km/h
1211 26-08-2010 02:29:05 16.7 C 10.09 g/m*3 16.7 C 0 km/h
1212 26-08-2010 02:41:05 17 C 9.84 g/m*3 17 C 0 km/h
1213 26-08-2010 02:53:05 16.7 C 9.95 g/m*3 16.7 C 0 km/h
1214 26-08-2010 03:05:05 16.8 C 10.29 g/m*3 16.8 C 0 km/h
1215 26-08-2010 03:17:05 16.8 C 10.29 g/m*3 16.8 C 0 km/h
1216 26-08-2010 03:29:05 16.9 C 9.92 g/m*3 16.9 C 0 km/h
1217 26-08-2010 03:41:05 16.9 C 9.92 g/m*3 16.9 C 0 km/h
1218 26-08-2010 03:53:05 16.9 C 9.78 g/m*3 16.9 C 0 km/h
1219 26-08-2010 04:05:06 16.9 C 9.78 g/m*3 16.9 C 0 km/h
1220 26-08-2010 04:17:06 17 C 9.69 g/m*3 17 C 0 km/h
1221 26-08-2010 04:29:06 17 C 9.84 g/m*3 17 C 0 km/h
1222 26-08-2010 04:41:06 16.9 C 9.92 g/m*3 16.9 C 0 km/h
1223 26-08-2010 04:53:06 16.9 C 10.07 g/m*3 16.9 C 0 km/h
1224 26-08-2010 05:05:06 17.3 C 10.31 g/m*3 17.3 C 0 km/h
1225 26-08-2010 05:17:06 18.1 C 10.35 g/m*3 18.1 C 0 km/h
Sensor: Nr:Datum:Temp:Abs-Feuchte:Windchill:Wind:
Aussen-T/F 1226 26-08-2010 05:29:06 18.5 C 10.28 g/m*3 18.5 C 0 km/h
1227 26-08-2010 05:41:06 18.8 C 10.31 g/m*3 18.8 C 0 km/h
1228 26-08-2010 05:53:06 18.7 C 10.25 g/m*3 18.7 C 0 km/h
1229 26-08-2010 06:05:03 18.2 C 10.1 g/m*3 18.2 C 0 km/h
1230 26-08-2010 06:17:03 18.1 C 10.35 g/m*3 18.1 C 0 km/h
1231 26-08-2010 06:29:03 17.9 C 10.54 g/m*3 17.9 C 0 km/h
1232 26-08-2010 06:41:03 18.1 C 10.82 g/m*3 18.1 C 0 km/h
1233 26-08-2010 06:53:02 18.6 C 10.82 g/m*3 18.6 C 0 km/h
1234 26-08-2010 07:05:02 18.9 C 10.69 g/m*3 18.9 C 0 km/h
1235 26-08-2010 07:17:02 19 C 10.59 g/m*3 19 C 0 km/h
1236 26-08-2010 07:29:02 19.2 C 10.55 g/m*3 19.2 C 0 km/h
1237 26-08-2010 07:41:02 19.4 C 10.68 g/m*3 19.4 C 0 km/h
1238 26-08-2010 07:53:02 19.8 C 10.93 g/m*3 19.8 C 0 km/h
1239 26-08-2010 08:05:01 20 C 10.71 g/m*3 20 C 0 km/h
1240 26-08-2010 08:17:02 20.1 C 10.95 g/m*3 20.1 C 0 km/h
1241 26-08-2010 08:29:02 20.2 C 11.02 g/m*3 20.2 C 0 km/h
1242 26-08-2010 08:41:01 20.1 C 11.3 g/m*3 20.1 C 0 km/h
1243 26-08-2010 08:53:01 20.6 C 11.63 g/m*3 20.6 C 0 km/h
1244 26-08-2010 09:05:02 20.8 C 11.41 g/m*3 20.8 C 0 km/h
1245 26-08-2010 09:17:02 21.1 C 11.42 g/m*3 21.1 C 0 km/h
1246 26-08-2010 09:29:02 21.5 C 11.31 g/m*3 21.5 C 0 km/h
1247 26-08-2010 09:41:02 22 C 11.26 g/m*3 22 C 0 km/h
1248 26-08-2010 09:53:01 22.2 C 11.19 g/m*3 22.2 C 0 km/h
1249 26-08-2010 10:05:02 22.6 C 11.25 g/m*3 22.6 C 0 km/h
1250 26-08-2010 10:17:02 22.6 C 11.25 g/m*3 22.6 C 0 km/h
Sensor: Nr:Datum:Temp:Abs-Feuchte:Windchill:Wind:
Aussen-T/F 1251 26-08-2010 10:29:02 22.9 C 11.24 g/m*3 22.9 C 0 km/h
1252 26-08-2010 10:41:01 22.7 C 11.11 g/m*3 22.7 C 0 km/h
1253 26-08-2010 10:53:02 23 C 11.1 g/m*3 23 C 0 km/h
1254 26-08-2010 11:05:01 23.2 C 11.23 g/m*3 23.2 C 0 km/h
1255 26-08-2010 11:17:02 23.9 C 11.25 g/m*3 23.9 C 0 km/h
1256 26-08-2010 11:29:03 23.5 C 11.21 g/m*3 23.5 C 0 km/h
1257 26-08-2010 11:41:01 24.1 C 11.16 g/m*3 24.1 C 0 km/h
1258 26-08-2010 11:53:02 24.1 C 10.94 g/m*3 24.1 C 0 km/h
1259 26-08-2010 12:05:02 24.4 C 11.13 g/m*3 24.4 C 0 km/h
1260 26-08-2010 12:17:02 23.8 C 10.97 g/m*3 23.8 C 0 km/h
1261 26-08-2010 12:29:02 23.4 C 11.14 g/m*3 23.4 C 0 km/h
1262 26-08-2010 12:41:03 23.2 C 11.23 g/m*3 23.2 C 0 km/h
1263 26-08-2010 12:53:02 22.9 C 11.24 g/m*3 22.9 C 0 km/h
1264 26-08-2010 13:05:02 22.7 C 11.31 g/m*3 22.7 C 0 km/h
1265 26-08-2010 13:17:01 22.7 C 11.31 g/m*3 22.7 C 0 km/h
1266 26-08-2010 13:29:01 22.9 C 11.24 g/m*3 22.9 C 0 km/h
1267 26-08-2010 13:41:02 23.3 C 11.08 g/m*3 23.3 C 0 km/h
1268 26-08-2010 13:53:02 23.2 C 11.02 g/m*3 23.2 C 0 km/h
1269 26-08-2010 14:05:02 23.5 C 11.21 g/m*3 23.5 C 0 km/h
1270 26-08-2010 14:17:02 23.9 C 11.25 g/m*3 23.9 C 0 km/h
1271 26-08-2010 14:29:02 23.9 C 11.03 g/m*3 23.9 C 0 km/h
1272 26-08-2010 14:41:02 23.8 C 11.19 g/m*3 23.8 C 0 km/h
1273 26-08-2010 14:53:02 23.9 C 11.25 g/m*3 23.9 C 0 km/h
1274 26-08-2010 15:05:02 23.9 C 11.47 g/m*3 23.9 C 0 km/h
1275 26-08-2010 15:17:02 23.8 C 11.19 g/m*3 23.8 C 0 km/h
Sensor: Nr:Datum:Temp:Abs-Feuchte:Windchill:Wind:
Aussen-T/F 1276 26-08-2010 15:29:02 23.7 C 11.34 g/m*3 23.7 C 0 km/h
1277 26-08-2010 15:41:02 23.5 C 11.42 g/m*3 23.5 C 0 km/h
1278 26-08-2010 15:53:02 23.5 C 11.21 g/m*3 23.5 C 0 km/h
1279 26-08-2010 16:05:02 23.9 C 11.47 g/m*3 23.9 C 0 km/h
1280 26-08-2010 16:17:02 23.8 C 11.4 g/m*3 23.8 C 0 km/h
1281 26-08-2010 16:29:02 23.7 C 11.34 g/m*3 23.7 C 0 km/h
1282 26-08-2010 16:41:02 24.2 C 11.22 g/m*3 24.2 C 0 km/h
1283 26-08-2010 16:53:02 24.1 C 10.94 g/m*3 24.1 C 0 km/h
1284 26-08-2010 17:05:02 23.9 C 11.25 g/m*3 23.9 C 0 km/h
1285 26-08-2010 17:17:02 23.7 C 11.34 g/m*3 23.7 C 0 km/h
1286 26-08-2010 17:29:02 23.6 C 11.27 g/m*3 23.6 C 0 km/h
1287 26-08-2010 17:41:02 23.5 C 11.21 g/m*3 23.5 C 0 km/h
1288 26-08-2010 17:53:02 23.4 C 11.35 g/m*3 23.4 C 0 km/h
1289 26-08-2010 18:05:02 23.4 C 11.35 g/m*3 23.4 C 0 km/h
1290 26-08-2010 18:17:02 23.3 C 11.5 g/m*3 23.3 C 0 km/h
1291 26-08-2010 18:29:03 23.2 C 11.85 g/m*3 23.2 C 0 km/h
1292 26-08-2010 18:41:01 23 C 11.72 g/m*3 23 C 0 km/h
1293 26-08-2010 18:53:02 23 C 11.92 g/m*3 23 C 0 km/h
1294 26-08-2010 19:05:01 22.6 C 12.25 g/m*3 22.6 C 0 km/h
1295 26-08-2010 19:17:02 22.6 C 12.25 g/m*3 22.6 C 0 km/h
1296 26-08-2010 19:29:02 21.6 C 13.28 g/m*3 21.6 C 0 km/h
1297 26-08-2010 19:41:02 20.7 C 14.04 g/m*3 20.7 C 0 km/h
1298 26-08-2010 19:53:02 20.8 C 14.67 g/m*3 20.8 C 0 km/h
1299 26-08-2010 20:05:02 21 C 14.65 g/m*3 21 C 0 km/h
1300 26-08-2010 20:17:02 20.9 C 14.57 g/m*3 20.9 C 0 km/h
Sensor: Nr:Datum:Temp:Abs-Feuchte:Windchill:Wind:
Aussen-T/F 1301 26-08-2010 20:29:02 21 C 14.47 g/m*3 21 C 0 km/h
1302 26-08-2010 20:41:02 20.9 C 14.39 g/m*3 20.9 C 0 km/h
1303 26-08-2010 20:53:01 20.9 C 14.39 g/m*3 20.9 C 0 km/h
1304 26-08-2010 21:05:02 20.7 C 14.04 g/m*3 20.7 C 0 km/h
1305 26-08-2010 21:17:01 20.7 C 14.04 g/m*3 20.7 C 0 km/h
1306 26-08-2010 21:29:01 20.4 C 13.98 g/m*3 20.4 C 0 km/h
1307 26-08-2010 21:41:02 20.2 C 13.99 g/m*3 20.2 C 0 km/h
1308 26-08-2010 21:53:02 20.1 C 14.08 g/m*3 20.1 C 0 km/h
1309 26-08-2010 22:06:04 20 C 14.34 g/m*3 20 C 0 km/h
1310 26-08-2010 22:18:04 19.8 C 14.52 g/m*3 19.8 C 0 km/h
1311 26-08-2010 22:30:04 19.7 C 14.6 g/m*3 19.7 C 0 km/h
1312 26-08-2010 22:42:04 19.7 C 14.77 g/m*3 19.7 C 0 km/h
1313 26-08-2010 22:54:04 19.6 C 14.86 g/m*3 19.6 C 0 km/h
1314 26-08-2010 23:06:04 19.5 C 14.77 g/m*3 19.5 C 0 km/h
1315 26-08-2010 23:18:04 19.5 C 14.94 g/m*3 19.5 C 0 km/h
1316 26-08-2010 23:30:04 19.5 C 14.94 g/m*3 19.5 C 0 km/h
1317 26-08-2010 23:42:05 19.4 C 15.02 g/m*3 19.4 C 0 km/h
1318 26-08-2010 23:54:05 19.3 C 15.09 g/m*3 19.3 C 0 km/h
1319 27-08-2010 00:06:05 19.2 C 15.01 g/m*3 19.2 C 0 km/h
1320 27-08-2010 00:18:05 19 C 14.83 g/m*3 19 C 0 km/h
1321 27-08-2010 00:30:05 19 C 14.83 g/m*3 19 C 0 km/h
1322 27-08-2010 00:42:05 18.9 C 14.9 g/m*3 18.9 C 0 km/h
1323 27-08-2010 00:54:05 18.8 C 14.98 g/m*3 18.8 C 0 km/h
1324 27-08-2010 01:06:05 18.7 C 14.89 g/m*3 18.7 C 0 km/h
1325 27-08-2010 01:18:05 18.7 C 14.89 g/m*3 18.7 C 0 km/h
Sensor: Nr:Datum:Temp:Abs-Feuchte:Windchill:Wind:
Aussen-T/F 1326 27-08-2010 01:30:05 18.8 C 14.98 g/m*3 18.8 C 0 km/h
1327 27-08-2010 01:42:05 18.8 C 14.98 g/m*3 18.8 C 0 km/h
1328 27-08-2010 01:54:05 18.8 C 15.14 g/m*3 18.8 C 0 km/h
1329 27-08-2010 02:06:05 18.8 C 15.14 g/m*3 18.8 C 0 km/h
1330 27-08-2010 02:18:05 18.7 C 15.05 g/m*3 18.7 C 0 km/h
1331 27-08-2010 02:30:05 18.5 C 14.87 g/m*3 18.5 C 0 km/h
1332 27-08-2010 02:42:05 18.6 C 14.96 g/m*3 18.6 C 0 km/h
1333 27-08-2010 02:54:05 18.5 C 14.87 g/m*3 18.5 C 0 km/h
1334 27-08-2010 03:06:05 18.4 C 14.78 g/m*3 18.4 C 0 km/h
1335 27-08-2010 03:18:05 18.4 C 14.78 g/m*3 18.4 C 0 km/h
1336 27-08-2010 03:30:05 18.4 C 14.78 g/m*3 18.4 C 0 km/h
1337 27-08-2010 03:42:05 18.4 C 14.78 g/m*3 18.4 C 0 km/h
1338 27-08-2010 03:54:05 18.3 C 14.7 g/m*3 18.3 C 0 km/h
1339 27-08-2010 04:06:05 18.3 C 14.7 g/m*3 18.3 C 0 km/h
1340 27-08-2010 04:18:06 18.3 C 14.7 g/m*3 18.3 C 0 km/h
1341 27-08-2010 04:30:06 18.4 C 14.78 g/m*3 18.4 C 0 km/h
1342 27-08-2010 04:42:06 18.4 C 14.78 g/m*3 18.4 C 0 km/h
1343 27-08-2010 04:54:06 18.3 C 14.7 g/m*3 18.3 C 0 km/h
1344 27-08-2010 05:06:06 18.3 C 14.85 g/m*3 18.3 C 0 km/h
1345 27-08-2010 05:18:06 18.3 C 14.7 g/m*3 18.3 C 0 km/h
1346 27-08-2010 05:30:06 18.4 C 14.78 g/m*3 18.4 C 0 km/h
1347 27-08-2010 05:42:06 18.4 C 14.94 g/m*3 18.4 C 0 km/h
1348 27-08-2010 05:54:06 18.6 C 15.12 g/m*3 18.6 C 0 km/h
1349 27-08-2010 06:06:06 18.7 C 15.21 g/m*3 18.7 C 0 km/h
1350 27-08-2010 06:18:06 18.8 C 15.3 g/m*3 18.8 C 0 km/h
Sensor: Nr:Datum:Temp:Abs-Feuchte:Windchill:Wind:
Aussen-T/F 1351 27-08-2010 06:30:06 18.9 C 15.39 g/m*3 18.9 C 0 km/h
1352 27-08-2010 06:42:06 18.9 C 15.39 g/m*3 18.9 C 0 km/h
1353 27-08-2010 06:54:06 18.8 C 15.3 g/m*3 18.8 C 0 km/h
1354 27-08-2010 07:06:06 18.8 C 15.14 g/m*3 18.8 C 0 km/h
1355 27-08-2010 07:18:07 18.7 C 15.05 g/m*3 18.7 C 0 km/h
1356 27-08-2010 07:30:07 18.7 C 15.05 g/m*3 18.7 C 0 km/h
1357 27-08-2010 07:42:07 18.6 C 14.96 g/m*3 18.6 C 0 km/h
1358 27-08-2010 07:54:01 18.6 C 14.96 g/m*3 18.6 C 0 km/h
1359 27-08-2010 08:06:02 18.6 C 14.96 g/m*3 18.6 C 0 km/h
1360 27-08-2010 08:18:01 18.6 C 14.96 g/m*3 18.6 C 0 km/h
1361 27-08-2010 08:30:01 18.6 C 14.96 g/m*3 18.6 C 0 km/h
1362 27-08-2010 08:42:01 18.5 C 14.87 g/m*3 18.5 C 0 km/h
1363 27-08-2010 08:54:02 18.6 C 14.96 g/m*3 18.6 C 0 km/h
1364 27-08-2010 09:06:01 18.6 C 14.96 g/m*3 18.6 C 0 km/h
1365 27-08-2010 09:18:02 18.8 C 15.14 g/m*3 18.8 C 0 km/h
1366 27-08-2010 09:30:02 19.5 C 15.27 g/m*3 19.5 C 0 km/h
1367 27-08-2010 09:42:01 19.7 C 15.11 g/m*3 19.7 C 0 km/h
1368 27-08-2010 09:54:02 19.7 C 14.77 g/m*3 19.7 C 0 km/h
1369 27-08-2010 10:06:02 19.7 C 14.6 g/m*3 19.7 C 0 km/h
1370 27-08-2010 10:18:02 19.8 C 14.52 g/m*3 19.8 C 0 km/h
1371 27-08-2010 10:30:02 19.4 C 14.18 g/m*3 19.4 C 0 km/h
1372 27-08-2010 10:42:03 19 C 14.18 g/m*3 19 C 0 km/h
1373 27-08-2010 10:54:02 18.7 C 14.25 g/m*3 18.7 C 0 km/h
1374 27-08-2010 11:06:02 18.5 C 14.4 g/m*3 18.5 C 0 km/h
1375 27-08-2010 11:18:01 18.3 C 13.92 g/m*3 18.3 C 0 km/h
Sensor: Nr:Datum:Temp:Abs-Feuchte:Windchill:Wind:
Aussen-T/F 1376 27-08-2010 11:30:01 18.1 C 13.44 g/m*3 18.1 C 0 km/h
1377 27-08-2010 11:42:02 17.9 C 13.13 g/m*3 17.9 C 0 km/h
1378 27-08-2010 11:54:02 18 C 13.06 g/m*3 18 C 0 km/h
1379 27-08-2010 12:06:02 18.7 C 13.77 g/m*3 18.7 C 0 km/h
1380 27-08-2010 12:18:02 19.5 C 13.93 g/m*3 19.5 C 0 km/h
1381 27-08-2010 12:30:02 20.4 C 13.62 g/m*3 20.4 C 0 km/h
1382 27-08-2010 12:42:02 20.5 C 12.99 g/m*3 20.5 C 0 km/h
1383 27-08-2010 12:54:02 21.4 C 13.12 g/m*3 21.4 C 0 km/h
1384 27-08-2010 13:06:02 21.9 C 12.93 g/m*3 21.9 C 0 km/h
1385 27-08-2010 13:18:02 22.4 C 13.11 g/m*3 22.4 C 0 km/h
1386 27-08-2010 13:30:02 22.8 C 12.6 g/m*3 22.8 C 0 km/h
1387 27-08-2010 13:42:02 23.4 C 12.41 g/m*3 23.4 C 0 km/h
1388 27-08-2010 13:54:02 24.1 C 11.82 g/m*3 24.1 C 0 km/h
1389 27-08-2010 14:06:02 24.2 C 11.88 g/m*3 24.2 C 0 km/h
1390 27-08-2010 14:18:03 23.6 C 11.7 g/m*3 23.6 C 0 km/h
1391 27-08-2010 14:30:03 22.5 C 12.78 g/m*3 22.5 C 0 km/h
1392 27-08-2010 14:42:02 17 C 11 g/m*3 17 C 0 km/h
1393 27-08-2010 14:54:03 16.5 C 11.94 g/m*3 16.5 C 0 km/h
1394 27-08-2010 15:06:02 16.7 C 12.65 g/m*3 16.7 C 0 km/h
1395 27-08-2010 15:18:02 18.3 C 13.76 g/m*3 18.3 C 0 km/h
1396 27-08-2010 15:30:02 19 C 13.85 g/m*3 19 C 0 km/h
1397 27-08-2010 15:42:02 19.8 C 13.66 g/m*3 19.8 C 0 km/h
1398 27-08-2010 15:54:02 20.8 C 13.4 g/m*3 20.8 C 0 km/h
1399 27-08-2010 16:06:01 21.8 C 12.47 g/m*3 21.8 C 0 km/h
1400 27-08-2010 16:18:02 21.7 C 12.59 g/m*3 21.7 C 0 km/h
Sensor: Nr:Datum:Temp:Abs-Feuchte:Windchill:Wind:
Aussen-T/F 1401 27-08-2010 16:30:02 21.3 C 12.68 g/m*3 21.3 C 0 km/h
1402 27-08-2010 16:42:02 21.7 C 13.35 g/m*3 21.7 C 0 km/h
1403 27-08-2010 16:54:02 23 C 13.36 g/m*3 23 C 0 km/h
1404 27-08-2010 17:06:01 22.8 C 11.99 g/m*3 22.8 C 0 km/h
1405 27-08-2010 17:18:01 22.9 C 12.47 g/m*3 22.9 C 0 km/h
1406 27-08-2010 17:30:01 21.5 C 11.5 g/m*3 21.5 C 0 km/h
1407 27-08-2010 17:42:02 20.2 C 11.37 g/m*3 20.2 C 0 km/h
1408 27-08-2010 17:54:02 19.1 C 11.15 g/m*3 19.1 C 0 km/h
1409 27-08-2010 18:06:02 17.3 C 12.08 g/m*3 17.3 C 0 km/h
1410 27-08-2010 18:18:02 16.6 C 12.15 g/m*3 16.6 C 0 km/h
1411 27-08-2010 18:30:02 16.4 C 12.14 g/m*3 16.4 C 0 km/h
1412 27-08-2010 18:42:02 17 C 12.3 g/m*3 17 C 0 km/h
1413 27-08-2010 18:54:02 16.7 C 11.37 g/m*3 16.7 C 0 km/h
1414 27-08-2010 19:06:02 16.3 C 11.38 g/m*3 16.3 C 0 km/h
1415 27-08-2010 19:18:02 16 C 11.31 g/m*3 16 C 0 km/h
1416 27-08-2010 19:30:02 15.5 C 10.84 g/m*3 15.5 C 0 km/h
1417 27-08-2010 19:42:02 15.3 C 10.71 g/m*3 15.3 C 0 km/h
1418 27-08-2010 19:54:02 15.1 C 10.45 g/m*3 15.1 C 0 km/h
1419 27-08-2010 20:06:02 15.1 C 10.58 g/m*3 15.1 C 0 km/h
1420 27-08-2010 20:18:02 15.3 C 10.71 g/m*3 15.3 C 0 km/h
1421 27-08-2010 20:30:02 15.3 C 10.45 g/m*3 15.3 C 0 km/h
1422 27-08-2010 20:42:02 15.2 C 10.25 g/m*3 15.2 C 0 km/h
1423 27-08-2010 20:54:02 14.7 C 10.2 g/m*3 14.7 C 0 km/h
1424 27-08-2010 21:06:02 14.5 C 10.32 g/m*3 14.5 C 0 km/h
1425 27-08-2010 21:18:03 14.5 C 10.2 g/m*3 14.5 C 0 km/h
Sensor: Nr:Datum:Temp:Abs-Feuchte:Windchill:Wind:
Aussen-T/F 1426 27-08-2010 21:30:03 14.6 C 10.14 g/m*3 14.6 C 0 km/h
1427 27-08-2010 21:42:02 14.6 C 10.14 g/m*3 14.6 C 0 km/h
1428 27-08-2010 21:54:03 14.7 C 10.07 g/m*3 14.7 C 0 km/h
1429 27-08-2010 22:06:02 14.8 C 10.01 g/m*3 14.8 C 0 km/h
1430 27-08-2010 22:18:02 14.8 C 10.01 g/m*3 14.8 C 0 km/h
1431 27-08-2010 22:30:02 14.8 C 10.01 g/m*3 14.8 C 0 km/h
1432 27-08-2010 22:43:28 14.8 C 10.01 g/m*3 14.8 C 0 km/h
1433 27-08-2010 22:55:28 14.5 C 10.07 g/m*3 14.5 C 0 km/h
1434 27-08-2010 23:07:28 13.8 C 9.65 g/m*3 13.8 C 0 km/h
1435 27-08-2010 23:19:28 13.9 C 9.59 g/m*3 13.9 C 0 km/h
1436 27-08-2010 23:31:28 13.8 C 9.29 g/m*3 13.8 C 0 km/h
1437 27-08-2010 23:43:28 14.1 C 9.1 g/m*3 14.1 C 0 km/h
1438 27-08-2010 23:55:28 14.2 C 9.04 g/m*3 14.2 C 0 km/h
1439 28-08-2010 00:07:28 14.1 C 9.1 g/m*3 14.1 C 0 km/h
1440 28-08-2010 00:19:28 13.9 C 9.11 g/m*3 13.9 C 0 km/h
1441 28-08-2010 00:31:28 14 C 9.05 g/m*3 14 C 0 km/h
1442 28-08-2010 00:43:28 13.7 C 9.35 g/m*3 13.7 C 0 km/h
1443 28-08-2010 00:55:29 13.2 C 9.42 g/m*3 13.2 C 0 km/h
1444 28-08-2010 01:07:29 13.2 C 9.64 g/m*3 13.2 C 0 km/h
1445 28-08-2010 01:19:29 13.1 C 9.81 g/m*3 13.1 C 0 km/h
1446 28-08-2010 01:31:29 13 C 9.87 g/m*3 13 C 0 km/h
1447 28-08-2010 01:43:29 13.1 C 10.04 g/m*3 13.1 C 0 km/h
1448 28-08-2010 01:55:29 13.1 C 10.04 g/m*3 13.1 C 0 km/h
1449 28-08-2010 02:07:29 13.2 C 9.99 g/m*3 13.2 C 0 km/h
1450 28-08-2010 02:19:29 13.2 C 9.99 g/m*3 13.2 C 0 km/h
Sensor: Nr:Datum:Temp:Abs-Feuchte:Windchill:Wind:
Aussen-T/F 1451 28-08-2010 02:31:29 13.1 C 9.81 g/m*3 13.1 C 0 km/h
1452 28-08-2010 02:43:29 13.1 C 9.7 g/m*3 13.1 C 0 km/h
1453 28-08-2010 02:55:29 13.1 C 9.59 g/m*3 13.1 C 0 km/h
1454 28-08-2010 03:07:29 13.1 C 9.59 g/m*3 13.1 C 0 km/h
1455 28-08-2010 03:19:29 13.1 C 9.59 g/m*3 13.1 C 0 km/h
1456 28-08-2010 03:31:29 13.1 C 9.47 g/m*3 13.1 C 0 km/h
1457 28-08-2010 03:43:29 13.1 C 9.59 g/m*3 13.1 C 0 km/h
1458 28-08-2010 03:55:29 13.1 C 9.59 g/m*3 13.1 C 0 km/h
1459 28-08-2010 04:07:29 12.9 C 9.47 g/m*3 12.9 C 0 km/h
1460 28-08-2010 04:19:30 12.9 C 9.47 g/m*3 12.9 C 0 km/h
1461 28-08-2010 04:31:30 12.5 C 9.24 g/m*3 12.5 C 0 km/h
1462 28-08-2010 04:43:30 12.3 C 9.23 g/m*3 12.3 C 0 km/h
1463 28-08-2010 04:55:30 12.1 C 9.12 g/m*3 12.1 C 0 km/h
1464 28-08-2010 05:07:30 12.2 C 9.28 g/m*3 12.2 C 0 km/h
1465 28-08-2010 05:19:30 12.3 C 9.34 g/m*3 12.3 C 0 km/h
1466 28-08-2010 05:31:30 12.1 C 9.01 g/m*3 12.1 C 0 km/h
1467 28-08-2010 05:43:30 11.9 C 9 g/m*3 11.9 C 0 km/h
1468 28-08-2010 05:55:30 12.1 C 9.12 g/m*3 12.1 C 0 km/h
1469 28-08-2010 06:07:30 11.7 C 8.89 g/m*3 11.7 C 0 km/h
1470 28-08-2010 06:19:30 11.6 C 8.83 g/m*3 11.6 C 0 km/h
1471 28-08-2010 06:31:30 11.7 C 8.79 g/m*3 11.7 C 0 km/h
1472 28-08-2010 06:43:30 11.5 C 8.68 g/m*3 11.5 C 0 km/h
1473 28-08-2010 06:55:02 11.4 C 8.62 g/m*3 11.4 C 0 km/h
1474 28-08-2010 07:07:02 11.3 C 8.67 g/m*3 11.3 C 0 km/h
1475 28-08-2010 07:19:02 11.3 C 8.77 g/m*3 11.3 C 0 km/h
Sensor: Nr:Datum:Temp:Abs-Feuchte:Windchill:Wind:
Aussen-T/F 1476 28-08-2010 07:31:01 11.6 C 8.94 g/m*3 11.6 C 0 km/h
1477 28-08-2010 07:43:01 12 C 8.95 g/m*3 12 C 0 km/h
1478 28-08-2010 07:55:02 12.4 C 9.07 g/m*3 12.4 C 0 km/h
1479 28-08-2010 08:07:01 12.6 C 9.07 g/m*3 12.6 C 0 km/h
1480 28-08-2010 08:19:02 12.8 C 8.96 g/m*3 12.8 C 0 km/h
1481 28-08-2010 08:31:01 13 C 8.85 g/m*3 13 C 0 km/h
1482 28-08-2010 08:43:01 13.4 C 8.95 g/m*3 13.4 C 0 km/h
1483 28-08-2010 08:55:02 13.6 C 8.83 g/m*3 13.6 C 0 km/h
1484 28-08-2010 09:07:02 14.3 C 8.97 g/m*3 14.3 C 0 km/h
1485 28-08-2010 09:19:01 14.2 C 8.55 g/m*3 14.2 C 0 km/h
1486 28-08-2010 09:31:02 14.1 C 8.62 g/m*3 14.1 C 0 km/h
1487 28-08-2010 09:43:02 14.1 C 8.37 g/m*3 14.1 C 0 km/h
1488 28-08-2010 09:55:02 14.4 C 8.41 g/m*3 14.4 C 0 km/h
1489 28-08-2010 10:07:02 14.6 C 8.38 g/m*3 14.6 C 0 km/h
1490 28-08-2010 10:19:02 14.6 C 8.38 g/m*3 14.6 C 0 km/h
1491 28-08-2010 10:31:02 15.1 C 8.39 g/m*3 15.1 C 0 km/h
1492 28-08-2010 10:43:02 15.6 C 8.51 g/m*3 15.6 C 0 km/h
1493 28-08-2010 10:55:02 15.8 C 8.08 g/m*3 15.8 C 0 km/h
1494 28-08-2010 11:07:03 15.8 C 8.21 g/m*3 15.8 C 0 km/h
1495 28-08-2010 11:19:02 16.4 C 7.96 g/m*3 16.4 C 0 km/h
1496 28-08-2010 11:31:03 16.9 C 7.77 g/m*3 16.9 C 0 km/h
1497 28-08-2010 11:43:03 16.7 C 7.25 g/m*3 16.7 C 0 km/h
1498 28-08-2010 11:55:02 16.4 C 7.82 g/m*3 16.4 C 0 km/h
1499 28-08-2010 12:07:02 17 C 7.67 g/m*3 17 C 0 km/h
1500 28-08-2010 12:19:02 18 C 7.22 g/m*3 18 C 0 km/h
Sensor: Nr:Datum:Temp:Abs-Feuchte:Windchill:Wind:
Aussen-T/F 1501 28-08-2010 12:31:02 13.7 C 8.05 g/m*3 13.7 C 0 km/h
1502 28-08-2010 12:43:02 13.7 C 9.35 g/m*3 13.7 C 0 km/h
1503 28-08-2010 12:55:02 14.7 C 10.58 g/m*3 14.7 C 0 km/h
1504 28-08-2010 13:07:02 15.7 C 10.84 g/m*3 15.7 C 0 km/h
1505 28-08-2010 13:19:03 15.8 C 10.23 g/m*3 15.8 C 0 km/h
1506 28-08-2010 13:31:02 15.5 C 10.31 g/m*3 15.5 C 0 km/h
1507 28-08-2010 13:43:02 17.2 C 11.57 g/m*3 17.2 C 0 km/h
1508 28-08-2010 13:55:03 17 C 10.13 g/m*3 17 C 0 km/h
1509 28-08-2010 14:07:02 15.8 C 8.88 g/m*3 15.8 C 0 km/h
1510 28-08-2010 14:19:03 16.8 C 8.01 g/m*3 16.8 C 0 km/h
1511 28-08-2010 14:31:02 15.9 C 6.91 g/m*3 15.9 C 0 km/h
1512 28-08-2010 14:43:02 14.9 C 7.01 g/m*3 14.9 C 0 km/h
1513 28-08-2010 14:55:02 14.6 C 7.63 g/m*3 14.6 C 0 km/h
1514 28-08-2010 15:07:02 14.7 C 7.68 g/m*3 14.7 C 0 km/h
1515 28-08-2010 15:19:02 15.8 C 7.94 g/m*3 15.8 C 0 km/h
1516 28-08-2010 15:31:03 17.6 C 7.65 g/m*3 17.6 C 0 km/h
1517 28-08-2010 15:43:03 17.9 C 6.72 g/m*3 17.9 C 0 km/h
1518 28-08-2010 15:55:02 17.6 C 7.05 g/m*3 17.6 C 0 km/h
1519 28-08-2010 16:07:01 17 C 6.8 g/m*3 17 C 0 km/h
1520 28-08-2010 16:19:02 14.9 C 7.65 g/m*3 14.9 C 0 km/h
1521 28-08-2010 16:31:02 13.9 C 8.27 g/m*3 13.9 C 0 km/h
1522 28-08-2010 16:43:02 14.5 C 8.95 g/m*3 14.5 C 0 km/h
1523 28-08-2010 16:55:01 15.2 C 8.44 g/m*3 15.2 C 0 km/h
1524 28-08-2010 17:07:02 15.9 C 9.21 g/m*3 15.9 C 0 km/h
1525 28-08-2010 17:19:01 16 C 8.72 g/m*3 16 C 0 km/h
Sensor: Nr:Datum:Temp:Abs-Feuchte:Windchill:Wind:
Aussen-T/F 1526 28-08-2010 17:31:02 15.7 C 8.3 g/m*3 15.7 C 0 km/h
1527 28-08-2010 17:43:02 15.2 C 8.05 g/m*3 15.2 C 0 km/h
1528 28-08-2010 17:55:01 15.2 C 9.09 g/m*3 15.2 C 0 km/h
1529 28-08-2010 18:07:02 16.2 C 8.27 g/m*3 16.2 C 0 km/h
1530 28-08-2010 18:19:01 17 C 6.95 g/m*3 17 C 0 km/h
1531 28-08-2010 18:31:02 18.1 C 7.26 g/m*3 18.1 C 0 km/h
1532 28-08-2010 18:43:02 18.3 C 7.04 g/m*3 18.3 C 0 km/h
1533 28-08-2010 18:55:01 18.2 C 7.46 g/m*3 18.2 C 0 km/h
1534 28-08-2010 19:07:02 16.8 C 7.86 g/m*3 16.8 C 0 km/h
1535 28-08-2010 19:19:02 16.1 C 7.95 g/m*3 16.1 C 0 km/h
1536 28-08-2010 19:31:02 15 C 8.59 g/m*3 15 C 0 km/h
1537 28-08-2010 19:43:02 14.2 C 8.79 g/m*3 14.2 C 0 km/h
1538 28-08-2010 19:55:01 14.2 C 8.3 g/m*3 14.2 C 0 km/h
1539 28-08-2010 20:07:02 13.4 C 8.6 g/m*3 13.4 C 0 km/h
1540 28-08-2010 20:19:02 13 C 8.85 g/m*3 13 C 0 km/h
1541 28-08-2010 20:31:01 13.1 C 9.13 g/m*3 13.1 C 0 km/h
1542 28-08-2010 20:43:01 13.1 C 9.24 g/m*3 13.1 C 0 km/h
1543 28-08-2010 20:55:02 12.9 C 9.35 g/m*3 12.9 C 0 km/h
1544 28-08-2010 21:07:01 12.8 C 9.3 g/m*3 12.8 C 0 km/h
1545 28-08-2010 21:19:02 12.7 C 9.24 g/m*3 12.7 C 0 km/h
1546 28-08-2010 21:31:01 12.4 C 9.07 g/m*3 12.4 C 0 km/h
1547 28-08-2010 21:43:01 12.2 C 8.96 g/m*3 12.2 C 0 km/h
1548 28-08-2010 21:55:02 12.2 C 9.06 g/m*3 12.2 C 0 km/h
1549 28-08-2010 22:08:02 12.3 C 9.12 g/m*3 12.3 C 0 km/h
1550 28-08-2010 22:20:02 12.3 C 9.01 g/m*3 12.3 C 0 km/h
Sensor: Nr:Datum:Temp:Abs-Feuchte:Windchill:Wind:
Aussen-T/F 1551 28-08-2010 22:32:03 12.2 C 8.85 g/m*3 12.2 C 0 km/h
1552 28-08-2010 22:44:03 12.1 C 8.79 g/m*3 12.1 C 0 km/h
1553 28-08-2010 22:56:03 12.3 C 9.01 g/m*3 12.3 C 0 km/h
1554 28-08-2010 23:08:03 12.6 C 8.96 g/m*3 12.6 C 0 km/h
1555 28-08-2010 23:20:03 12.7 C 8.79 g/m*3 12.7 C 0 km/h
1556 28-08-2010 23:32:03 12.4 C 8.74 g/m*3 12.4 C 0 km/h
1557 28-08-2010 23:44:03 12.1 C 8.58 g/m*3 12.1 C 0 km/h
1558 28-08-2010 23:56:03 12 C 8.53 g/m*3 12 C 0 km/h
1559 29-08-2010 00:08:03 11.8 C 8.42 g/m*3 11.8 C 0 km/h
1560 29-08-2010 00:20:03 11.8 C 8.42 g/m*3 11.8 C 0 km/h
1561 29-08-2010 00:32:03 11.9 C 8.58 g/m*3 11.9 C 0 km/h
1562 29-08-2010 00:44:03 12 C 8.53 g/m*3 12 C 0 km/h
1563 29-08-2010 00:56:03 12 C 8.42 g/m*3 12 C 0 km/h
1564 29-08-2010 01:08:03 11.7 C 8.47 g/m*3 11.7 C 0 km/h
1565 29-08-2010 01:20:03 11.5 C 8.37 g/m*3 11.5 C 0 km/h
1566 29-08-2010 01:32:03 11.5 C 8.47 g/m*3 11.5 C 0 km/h
1567 29-08-2010 01:44:03 11.4 C 8.42 g/m*3 11.4 C 0 km/h
1568 29-08-2010 01:56:03 11.4 C 8.52 g/m*3 11.4 C 0 km/h
1569 29-08-2010 02:08:03 11.7 C 8.58 g/m*3 11.7 C 0 km/h
1570 29-08-2010 02:20:03 11.7 C 8.47 g/m*3 11.7 C 0 km/h
1571 29-08-2010 02:32:03 11.7 C 8.58 g/m*3 11.7 C 0 km/h
1572 29-08-2010 02:44:04 11.8 C 8.53 g/m*3 11.8 C 0 km/h
1573 29-08-2010 02:56:04 11.8 C 8.53 g/m*3 11.8 C 0 km/h
1574 29-08-2010 03:08:04 11.8 C 8.42 g/m*3 11.8 C 0 km/h
1575 29-08-2010 03:20:04 11.8 C 8.53 g/m*3 11.8 C 0 km/h
Sensor: Nr:Datum:Temp:Abs-Feuchte:Windchill:Wind:
Aussen-T/F 1576 29-08-2010 03:32:04 11.8 C 8.53 g/m*3 11.8 C 0 km/h
1577 29-08-2010 03:44:04 11.7 C 8.47 g/m*3 11.7 C 0 km/h
1578 29-08-2010 03:56:04 11.7 C 8.47 g/m*3 11.7 C 0 km/h
1579 29-08-2010 04:08:04 11.6 C 8.42 g/m*3 11.6 C 0 km/h
1580 29-08-2010 04:20:04 11.4 C 8.31 g/m*3 11.4 C 0 km/h
1581 29-08-2010 04:32:04 11.4 C 8.42 g/m*3 11.4 C 0 km/h
1582 29-08-2010 04:44:04 11.4 C 8.42 g/m*3 11.4 C 0 km/h
1583 29-08-2010 04:56:04 11.7 C 8.37 g/m*3 11.7 C 0 km/h
1584 29-08-2010 05:08:04 11.8 C 8.31 g/m*3 11.8 C 0 km/h
1585 29-08-2010 05:20:04 11.7 C 8.26 g/m*3 11.7 C 0 km/h
1586 29-08-2010 05:32:04 11.7 C 8.26 g/m*3 11.7 C 0 km/h
1587 29-08-2010 05:44:04 11.7 C 8.37 g/m*3 11.7 C 0 km/h
1588 29-08-2010 05:56:04 11.8 C 8.42 g/m*3 11.8 C 0 km/h
1589 29-08-2010 06:08:04 12.2 C 8.31 g/m*3 12.2 C 0 km/h
1590 29-08-2010 06:20:04 12.1 C 8.26 g/m*3 12.1 C 0 km/h
1591 29-08-2010 06:32:04 12.2 C 8.2 g/m*3 12.2 C 0 km/h
1592 29-08-2010 06:44:04 12 C 8.31 g/m*3 12 C 0 km/h
1593 29-08-2010 06:56:04 12 C 8.42 g/m*3 12 C 0 km/h
1594 29-08-2010 07:08:02 12.1 C 8.36 g/m*3 12.1 C 0 km/h
1595 29-08-2010 07:20:02 12.2 C 8.31 g/m*3 12.2 C 0 km/h
1596 29-08-2010 07:32:02 12.2 C 8.31 g/m*3 12.2 C 0 km/h
1597 29-08-2010 07:44:02 12.2 C 8.31 g/m*3 12.2 C 0 km/h
1598 29-08-2010 07:56:02 12.3 C 8.36 g/m*3 12.3 C 0 km/h
1599 29-08-2010 08:08:02 12.1 C 8.36 g/m*3 12.1 C 0 km/h
1600 29-08-2010 08:20:01 12.2 C 8.42 g/m*3 12.2 C 0 km/h
Sensor: Nr:Datum:Temp:Abs-Feuchte:Windchill:Wind:
Aussen-T/F 1601 29-08-2010 08:32:02 12.5 C 8.36 g/m*3 12.5 C 0 km/h
1602 29-08-2010 08:44:02 12.6 C 8.3 g/m*3 12.6 C 0 km/h
1603 29-08-2010 08:56:01 12.8 C 8.29 g/m*3 12.8 C 0 km/h
1604 29-08-2010 09:08:02 13.5 C 8.3 g/m*3 13.5 C 0 km/h
1605 29-08-2010 09:20:02 13.8 C 8.1 g/m*3 13.8 C 0 km/h
1606 29-08-2010 09:32:01 14 C 8.08 g/m*3 14 C 0 km/h
1607 29-08-2010 09:44:01 14.3 C 8.23 g/m*3 14.3 C 0 km/h
1608 29-08-2010 09:56:03 14.4 C 8.16 g/m*3 14.4 C 0 km/h
1609 29-08-2010 10:08:03 14.9 C 8.28 g/m*3 14.9 C 0 km/h
1610 29-08-2010 10:20:03 15.3 C 7.97 g/m*3 15.3 C 0 km/h
1611 29-08-2010 10:32:02 15.3 C 7.97 g/m*3 15.3 C 0 km/h
1612 29-08-2010 10:44:02 15.7 C 8.03 g/m*3 15.7 C 0 km/h
1613 29-08-2010 10:56:01 15.8 C 7.94 g/m*3 15.8 C 0 km/h
1614 29-08-2010 11:08:02 16.3 C 8.05 g/m*3 16.3 C 0 km/h
1615 29-08-2010 11:20:01 16.4 C 7.96 g/m*3 16.4 C 0 km/h
1616 29-08-2010 11:32:01 16.6 C 7.91 g/m*3 16.6 C 0 km/h
1617 29-08-2010 11:44:01 16 C 7.77 g/m*3 16 C 0 km/h
1618 29-08-2010 11:56:01 16 C 7.9 g/m*3 16 C 0 km/h
1619 29-08-2010 12:08:01 15.9 C 7.85 g/m*3 15.9 C 0 km/h
1620 29-08-2010 12:20:02 14 C 9.17 g/m*3 14 C 0 km/h
1621 29-08-2010 12:32:01 14.6 C 9.76 g/m*3 14.6 C 0 km/h
1622 29-08-2010 12:44:01 15.1 C 9.16 g/m*3 15.1 C 0 km/h
1623 29-08-2010 12:56:03 16 C 9.13 g/m*3 16 C 0 km/h
1624 29-08-2010 13:08:02 16.9 C 8.92 g/m*3 16.9 C 0 km/h
1625 29-08-2010 13:20:02 16.9 C 8.63 g/m*3 16.9 C 0 km/h
Sensor: Nr:Datum:Temp:Abs-Feuchte:Windchill:Wind:
Aussen-T/F 1626 29-08-2010 13:32:02 16.4 C 8.37 g/m*3 16.4 C 0 km/h
1627 29-08-2010 13:44:02 15.3 C 8.62 g/m*3 15.3 C 0 km/h
1628 29-08-2010 13:56:02 14.7 C 8.94 g/m*3 14.7 C 0 km/h
1629 29-08-2010 14:08:01 15.2 C 8.83 g/m*3 15.2 C 0 km/h
1630 29-08-2010 14:20:02 16.4 C 8.51 g/m*3 16.4 C 0 km/h
1631 29-08-2010 14:32:02 17 C 7.96 g/m*3 17 C 0 km/h
1632 29-08-2010 14:44:02 17.1 C 8.3 g/m*3 17.1 C 0 km/h
1633 29-08-2010 14:56:01 16.6 C 8.33 g/m*3 16.6 C 0 km/h
1634 29-08-2010 15:08:01 15.7 C 8.3 g/m*3 15.7 C 0 km/h
1635 29-08-2010 15:20:01 15.5 C 8.2 g/m*3 15.5 C 0 km/h
1636 29-08-2010 15:32:02 14.2 C 8.91 g/m*3 14.2 C 0 km/h
1637 29-08-2010 15:44:02 14.7 C 9.69 g/m*3 14.7 C 0 km/h
1638 29-08-2010 15:56:02 15.3 C 9.4 g/m*3 15.3 C 0 km/h
1639 29-08-2010 16:08:02 15.1 C 9.03 g/m*3 15.1 C 0 km/h
1640 29-08-2010 16:20:02 15.5 C 8.99 g/m*3 15.5 C 0 km/h
1641 29-08-2010 16:32:02 15.9 C 8.53 g/m*3 15.9 C 0 km/h
1642 29-08-2010 16:44:03 16.2 C 8.14 g/m*3 16.2 C 0 km/h
1643 29-08-2010 16:56:02 16.1 C 7.81 g/m*3 16.1 C 0 km/h
1644 29-08-2010 17:08:02 15.9 C 7.85 g/m*3 15.9 C 0 km/h
1645 29-08-2010 17:20:02 15.6 C 7.98 g/m*3 15.6 C 0 km/h
1646 29-08-2010 17:32:02 15.2 C 8.18 g/m*3 15.2 C 0 km/h
1647 29-08-2010 17:44:02 14.1 C 8.74 g/m*3 14.1 C 0 km/h
1648 29-08-2010 17:56:02 14 C 8.68 g/m*3 14 C 0 km/h
1649 29-08-2010 18:08:02 13.8 C 8.94 g/m*3 13.8 C 0 km/h
1650 29-08-2010 18:20:01 13.4 C 9.3 g/m*3 13.4 C 0 km/h
Sensor: Nr:Datum:Temp:Abs-Feuchte:Windchill:Wind:
Aussen-T/F 1651 29-08-2010 18:32:01 13.1 C 9.59 g/m*3 13.1 C 0 km/h
1652 29-08-2010 18:44:01 12.7 C 9.46 g/m*3 12.7 C 0 km/h
1653 29-08-2010 18:56:02 12.3 C 9.23 g/m*3 12.3 C 0 km/h
1654 29-08-2010 19:08:02 12.2 C 9.28 g/m*3 12.2 C 0 km/h
1655 29-08-2010 19:20:01 12.2 C 9.39 g/m*3 12.2 C 0 km/h
1656 29-08-2010 19:32:02 12 C 9.38 g/m*3 12 C 0 km/h
1657 29-08-2010 19:44:02 11.8 C 9.26 g/m*3 11.8 C 0 km/h
1658 29-08-2010 19:56:02 11.8 C 9.16 g/m*3 11.8 C 0 km/h
1659 29-08-2010 20:08:02 11.8 C 8.95 g/m*3 11.8 C 0 km/h
1660 29-08-2010 20:20:03 11.8 C 8.95 g/m*3 11.8 C 0 km/h
1661 29-08-2010 20:32:02 11.7 C 8.89 g/m*3 11.7 C 0 km/h
1662 29-08-2010 20:44:02 11.7 C 8.99 g/m*3 11.7 C 0 km/h
1663 29-08-2010 20:56:01 11.9 C 9 g/m*3 11.9 C 0 km/h
1664 29-08-2010 21:08:01 12 C 8.95 g/m*3 12 C 0 km/h
1665 29-08-2010 21:20:02 12.2 C 8.96 g/m*3 12.2 C 0 km/h
1666 29-08-2010 21:32:01 12.3 C 9.01 g/m*3 12.3 C 0 km/h
1667 29-08-2010 21:44:01 12 C 8.95 g/m*3 12 C 0 km/h
1668 29-08-2010 21:56:02 9.7 C 7.74 g/m*3 9.7 C 0 km/h
1669 29-08-2010 22:09:03 9.3 C 7.82 g/m*3 9.3 C 0 km/h
1670 29-08-2010 22:21:03 9.2 C 7.95 g/m*3 9.2 C 0 km/h
1671 29-08-2010 22:33:03 9.2 C 8.04 g/m*3 9.2 C 0 km/h
1672 29-08-2010 22:45:03 9.2 C 8.13 g/m*3 9.2 C 0 km/h
1673 29-08-2010 22:57:03 9.1 C 8.16 g/m*3 9.1 C 0 km/h
1674 29-08-2010 23:09:03 9 C 8.11 g/m*3 9 C 0 km/h
1675 29-08-2010 23:21:03 9 C 8.11 g/m*3 9 C 0 km/h
Sensor: Nr:Datum:Temp:Abs-Feuchte:Windchill:Wind:
Aussen-T/F 1676 29-08-2010 23:33:03 9 C 8.11 g/m*3 9 C 0 km/h
1677 29-08-2010 23:45:03 9.3 C 8.27 g/m*3 9.3 C 0 km/h
1678 29-08-2010 23:57:03 9.3 C 8.18 g/m*3 9.3 C 0 km/h

Legende:
   Min
   Max


Maximal/Minimal-Werte vom 16.08.2010 - 29.08.2010

Sensor Min Max Avg
Temp
(Aussen-T/F)
9 °C
29-08-2010  23:09:03
32.8 °C
21-08-2010  17:36:02
18.71 °C
Abs-Feuchte
(Aussen-T/F)
4.21 g/m*3
24-08-2010  17:15:02
16.1 g/m*3
23-08-2010  12:26:02
10 g/m*3
Windchill
(Aussen-T/F)
9 C
29-08-2010  23:09:03
32.8 C
21-08-2010  17:36:02
18.7 C

Die Daten stammen von einer Davis Vantage Pro 2 Wetter-Station und werden unter Linux mit der Software wview2wettercgi und aufbereitet. Alle Angaben erfolgen ohne Gewähr für ihre Vollständigkeit oder Richtigkeit.
Kontakt: Rainer Krienke krienke@uni-koblenz.de . Meine Webseiten an der Uni Koblenz oder privat.
Version: $Revision: 0.78 $